<?xml version="1.0" encoding="UTF-8" standalone="no" ?>
<gpx xmlns="http://www.topografix.com/GPX/1/1" creator="MapSource 6.14.1" version="1.1" xmlns:xsi="http://www.w3.org/2001/XMLSchema-instance" xsi:schemaLocation="http://www.garmin.com/xmlschemas/GpxExtensions/v3 http://www.garmin.com/xmlschemas/GpxExtensionsv3.xsd http://www.topografix.com/GPX/1/1 http://www.topografix.com/GPX/1/1/gpx.xsd">

  <metadata>
    <link href="http://www.garmin.com">
      <text>Garmin International</text>
    </link>
    <time>2009-04-20T13:41:49Z</time>
    <bounds maxlat="45.0646740" maxlon="-93.5741550" minlat="44.9345660" minlon="-93.7695410"/>
  </metadata>

  <trk>
    <name>090419_SundayDrive</name>
    <extensions>
      <gpxx:TrackExtension xmlns:gpxx="http://www.garmin.com/xmlschemas/GpxExtensions/v3">
        <gpxx:DisplayColor>White</gpxx:DisplayColor>
      </gpxx:TrackExtension>
    </extensions>
    <trkseg>
      <trkpt lat="44.9946640" lon="-93.5946030">
        <ele>309.2000000</ele>
        <time>2009-04-19T15:01:02Z</time>
      </trkpt>
      <trkpt lat="44.9946400" lon="-93.5946240">
        <ele>313.5300000</ele>
        <time>2009-04-19T15:01:19Z</time>
      </trkpt>
      <trkpt lat="44.9944060" lon="-93.5946190">
        <ele>316.4100000</ele>
        <time>2009-04-19T15:01:27Z</time>
      </trkpt>
      <trkpt lat="44.9943570" lon="-93.5944970">
        <ele>319.3000000</ele>
        <time>2009-04-19T15:01:31Z</time>
      </trkpt>
      <trkpt lat="44.9943650" lon="-93.5943340">
        <ele>321.7000000</ele>
        <time>2009-04-19T15:01:36Z</time>
      </trkpt>
      <trkpt lat="44.9944050" lon="-93.5941610">
        <ele>321.7000000</ele>
        <time>2009-04-19T15:01:38Z</time>
      </trkpt>
      <trkpt lat="44.9944550" lon="-93.5941610">
        <ele>321.2200000</ele>
        <time>2009-04-19T15:01:39Z</time>
      </trkpt>
      <trkpt lat="44.9945190" lon="-93.5941610">
        <ele>321.2200000</ele>
        <time>2009-04-19T15:01:40Z</time>
      </trkpt>
      <trkpt lat="44.9945960" lon="-93.5941610">
        <ele>321.2200000</ele>
        <time>2009-04-19T15:01:41Z</time>
      </trkpt>
      <trkpt lat="44.9946820" lon="-93.5941610">
        <ele>320.7400000</ele>
        <time>2009-04-19T15:01:42Z</time>
      </trkpt>
      <trkpt lat="44.9956070" lon="-93.5941610">
        <ele>316.4100000</ele>
        <time>2009-04-19T15:01:53Z</time>
      </trkpt>
      <trkpt lat="44.9969300" lon="-93.5941610">
        <ele>309.2000000</ele>
        <time>2009-04-19T15:02:09Z</time>
      </trkpt>
      <trkpt lat="44.9974380" lon="-93.5941610">
        <ele>307.2800000</ele>
        <time>2009-04-19T15:02:19Z</time>
      </trkpt>
      <trkpt lat="44.9974580" lon="-93.5941610">
        <ele>307.7600000</ele>
        <time>2009-04-19T15:02:36Z</time>
      </trkpt>
      <trkpt lat="44.9978270" lon="-93.5941610">
        <ele>307.7600000</ele>
        <time>2009-04-19T15:02:45Z</time>
      </trkpt>
      <trkpt lat="44.9978270" lon="-93.5941610">
        <ele>306.8000000</ele>
        <time>2009-04-19T15:02:59Z</time>
      </trkpt>
      <trkpt lat="44.9980500" lon="-93.5941610">
        <ele>305.8400000</ele>
        <time>2009-04-19T15:03:10Z</time>
      </trkpt>
      <trkpt lat="44.9981210" lon="-93.5941610">
        <ele>306.3200000</ele>
        <time>2009-04-19T15:03:11Z</time>
      </trkpt>
      <trkpt lat="44.9981870" lon="-93.5943640">
        <ele>305.8400000</ele>
        <time>2009-04-19T15:03:12Z</time>
      </trkpt>
      <trkpt lat="44.9981780" lon="-93.5945220">
        <ele>305.3600000</ele>
        <time>2009-04-19T15:03:13Z</time>
      </trkpt>
      <trkpt lat="44.9981680" lon="-93.5946880">
        <ele>305.3600000</ele>
        <time>2009-04-19T15:03:14Z</time>
      </trkpt>
      <trkpt lat="44.9981570" lon="-93.5948760">
        <ele>305.8400000</ele>
        <time>2009-04-19T15:03:15Z</time>
      </trkpt>
      <trkpt lat="44.9981120" lon="-93.5964860">
        <ele>306.8000000</ele>
        <time>2009-04-19T15:03:22Z</time>
      </trkpt>
      <trkpt lat="44.9981120" lon="-93.5978280">
        <ele>309.2000000</ele>
        <time>2009-04-19T15:03:30Z</time>
      </trkpt>
      <trkpt lat="44.9981120" lon="-93.5989990">
        <ele>309.6800000</ele>
        <time>2009-04-19T15:03:38Z</time>
      </trkpt>
      <trkpt lat="44.9981120" lon="-93.5990920">
        <ele>309.6800000</ele>
        <time>2009-04-19T15:03:39Z</time>
      </trkpt>
      <trkpt lat="44.9981120" lon="-93.5991390">
        <ele>310.1600000</ele>
        <time>2009-04-19T15:03:40Z</time>
      </trkpt>
      <trkpt lat="44.9982570" lon="-93.5991390">
        <ele>310.1600000</ele>
        <time>2009-04-19T15:03:41Z</time>
      </trkpt>
      <trkpt lat="44.9983350" lon="-93.5991390">
        <ele>309.2000000</ele>
        <time>2009-04-19T15:03:42Z</time>
      </trkpt>
      <trkpt lat="44.9984180" lon="-93.5991390">
        <ele>309.2000000</ele>
        <time>2009-04-19T15:03:43Z</time>
      </trkpt>
      <trkpt lat="44.9992650" lon="-93.5991390">
        <ele>307.2800000</ele>
        <time>2009-04-19T15:03:50Z</time>
      </trkpt>
      <trkpt lat="45.0002030" lon="-93.5991390">
        <ele>301.0300000</ele>
        <time>2009-04-19T15:03:57Z</time>
      </trkpt>
      <trkpt lat="45.0003310" lon="-93.5991890">
        <ele>301.0300000</ele>
        <time>2009-04-19T15:03:58Z</time>
      </trkpt>
      <trkpt lat="45.0004650" lon="-93.5992460">
        <ele>301.0300000</ele>
        <time>2009-04-19T15:03:59Z</time>
      </trkpt>
      <trkpt lat="45.0005830" lon="-93.5993360">
        <ele>301.0300000</ele>
        <time>2009-04-19T15:04:00Z</time>
      </trkpt>
      <trkpt lat="45.0006980" lon="-93.5994510">
        <ele>301.0300000</ele>
        <time>2009-04-19T15:04:01Z</time>
      </trkpt>
      <trkpt lat="45.0008150" lon="-93.5995680">
        <ele>300.5500000</ele>
        <time>2009-04-19T15:04:02Z</time>
      </trkpt>
      <trkpt lat="45.0020740" lon="-93.6012180">
        <ele>295.7400000</ele>
        <time>2009-04-19T15:04:14Z</time>
      </trkpt>
      <trkpt lat="45.0023770" lon="-93.6016840">
        <ele>295.7400000</ele>
        <time>2009-04-19T15:04:17Z</time>
      </trkpt>
      <trkpt lat="45.0025060" lon="-93.6017870">
        <ele>296.2200000</ele>
        <time>2009-04-19T15:04:18Z</time>
      </trkpt>
      <trkpt lat="45.0026350" lon="-93.6018670">
        <ele>296.7000000</ele>
        <time>2009-04-19T15:04:19Z</time>
      </trkpt>
      <trkpt lat="45.0027710" lon="-93.6019210">
        <ele>296.7000000</ele>
        <time>2009-04-19T15:04:20Z</time>
      </trkpt>
      <trkpt lat="45.0029030" lon="-93.6019100">
        <ele>296.2200000</ele>
        <time>2009-04-19T15:04:21Z</time>
      </trkpt>
      <trkpt lat="45.0030390" lon="-93.6018870">
        <ele>296.2200000</ele>
        <time>2009-04-19T15:04:22Z</time>
      </trkpt>
      <trkpt lat="45.0031780" lon="-93.6018640">
        <ele>295.7400000</ele>
        <time>2009-04-19T15:04:23Z</time>
      </trkpt>
      <trkpt lat="45.0041190" lon="-93.6018340">
        <ele>296.7000000</ele>
        <time>2009-04-19T15:04:29Z</time>
      </trkpt>
      <trkpt lat="45.0042810" lon="-93.6018990">
        <ele>296.7000000</ele>
        <time>2009-04-19T15:04:30Z</time>
      </trkpt>
      <trkpt lat="45.0044430" lon="-93.6019640">
        <ele>297.1800000</ele>
        <time>2009-04-19T15:04:31Z</time>
      </trkpt>
      <trkpt lat="45.0056480" lon="-93.6022240">
        <ele>297.6700000</ele>
        <time>2009-04-19T15:04:39Z</time>
      </trkpt>
      <trkpt lat="45.0073380" lon="-93.6023040">
        <ele>301.9900000</ele>
        <time>2009-04-19T15:04:51Z</time>
      </trkpt>
      <trkpt lat="45.0074520" lon="-93.6023680">
        <ele>301.9900000</ele>
        <time>2009-04-19T15:04:52Z</time>
      </trkpt>
      <trkpt lat="45.0075620" lon="-93.6024650">
        <ele>301.9900000</ele>
        <time>2009-04-19T15:04:53Z</time>
      </trkpt>
      <trkpt lat="45.0076320" lon="-93.6026400">
        <ele>301.5100000</ele>
        <time>2009-04-19T15:04:54Z</time>
      </trkpt>
      <trkpt lat="45.0076630" lon="-93.6028260">
        <ele>301.9900000</ele>
        <time>2009-04-19T15:04:55Z</time>
      </trkpt>
      <trkpt lat="45.0076840" lon="-93.6030040">
        <ele>302.4700000</ele>
        <time>2009-04-19T15:04:56Z</time>
      </trkpt>
      <trkpt lat="45.0076890" lon="-93.6032170">
        <ele>301.9900000</ele>
        <time>2009-04-19T15:04:57Z</time>
      </trkpt>
      <trkpt lat="45.0076950" lon="-93.6034380">
        <ele>301.0300000</ele>
        <time>2009-04-19T15:04:58Z</time>
      </trkpt>
      <trkpt lat="45.0077000" lon="-93.6036640">
        <ele>300.0700000</ele>
        <time>2009-04-19T15:04:59Z</time>
      </trkpt>
      <trkpt lat="45.0077250" lon="-93.6066850">
        <ele>290.4600000</ele>
        <time>2009-04-19T15:05:13Z</time>
      </trkpt>
      <trkpt lat="45.0077970" lon="-93.6074160">
        <ele>290.9400000</ele>
        <time>2009-04-19T15:05:17Z</time>
      </trkpt>
      <trkpt lat="45.0078580" lon="-93.6075380">
        <ele>290.9400000</ele>
        <time>2009-04-19T15:05:18Z</time>
      </trkpt>
      <trkpt lat="45.0079360" lon="-93.6076620">
        <ele>291.4200000</ele>
        <time>2009-04-19T15:05:19Z</time>
      </trkpt>
      <trkpt lat="45.0080170" lon="-93.6077880">
        <ele>291.4200000</ele>
        <time>2009-04-19T15:05:20Z</time>
      </trkpt>
      <trkpt lat="45.0080990" lon="-93.6079180">
        <ele>291.4200000</ele>
        <time>2009-04-19T15:05:21Z</time>
      </trkpt>
      <trkpt lat="45.0081990" lon="-93.6080160">
        <ele>291.9000000</ele>
        <time>2009-04-19T15:05:22Z</time>
      </trkpt>
      <trkpt lat="45.0093230" lon="-93.6087130">
        <ele>298.1500000</ele>
        <time>2009-04-19T15:05:31Z</time>
      </trkpt>
      <trkpt lat="45.0101810" lon="-93.6089310">
        <ele>298.1500000</ele>
        <time>2009-04-19T15:05:38Z</time>
      </trkpt>
      <trkpt lat="45.0108080" lon="-93.6090090">
        <ele>297.6700000</ele>
        <time>2009-04-19T15:05:45Z</time>
      </trkpt>
      <trkpt lat="45.0121370" lon="-93.6092470">
        <ele>302.4700000</ele>
        <time>2009-04-19T15:05:54Z</time>
      </trkpt>
      <trkpt lat="45.0124540" lon="-93.6093970">
        <ele>303.4300000</ele>
        <time>2009-04-19T15:05:56Z</time>
      </trkpt>
      <trkpt lat="45.0126010" lon="-93.6095230">
        <ele>303.9100000</ele>
        <time>2009-04-19T15:05:57Z</time>
      </trkpt>
      <trkpt lat="45.0139460" lon="-93.6108120">
        <ele>306.3200000</ele>
        <time>2009-04-19T15:06:07Z</time>
      </trkpt>
      <trkpt lat="45.0151780" lon="-93.6120680">
        <ele>308.2400000</ele>
        <time>2009-04-19T15:06:15Z</time>
      </trkpt>
      <trkpt lat="45.0170160" lon="-93.6138960">
        <ele>301.0300000</ele>
        <time>2009-04-19T15:06:27Z</time>
      </trkpt>
      <trkpt lat="45.0175450" lon="-93.6144100">
        <ele>298.6300000</ele>
        <time>2009-04-19T15:06:31Z</time>
      </trkpt>
      <trkpt lat="45.0176980" lon="-93.6144590">
        <ele>298.1500000</ele>
        <time>2009-04-19T15:06:32Z</time>
      </trkpt>
      <trkpt lat="45.0178570" lon="-93.6145030">
        <ele>297.6700000</ele>
        <time>2009-04-19T15:06:33Z</time>
      </trkpt>
      <trkpt lat="45.0180260" lon="-93.6145030">
        <ele>297.6700000</ele>
        <time>2009-04-19T15:06:34Z</time>
      </trkpt>
      <trkpt lat="45.0181960" lon="-93.6145030">
        <ele>297.1800000</ele>
        <time>2009-04-19T15:06:35Z</time>
      </trkpt>
      <trkpt lat="45.0198050" lon="-93.6145120">
        <ele>297.6700000</ele>
        <time>2009-04-19T15:06:46Z</time>
      </trkpt>
      <trkpt lat="45.0207980" lon="-93.6145260">
        <ele>300.5500000</ele>
        <time>2009-04-19T15:06:55Z</time>
      </trkpt>
      <trkpt lat="45.0211890" lon="-93.6145310">
        <ele>305.8400000</ele>
        <time>2009-04-19T15:07:03Z</time>
      </trkpt>
      <trkpt lat="45.0214570" lon="-93.6145350">
        <ele>311.1200000</ele>
        <time>2009-04-19T15:07:17Z</time>
      </trkpt>
      <trkpt lat="45.0215860" lon="-93.6145370">
        <ele>314.0100000</ele>
        <time>2009-04-19T15:07:29Z</time>
      </trkpt>
      <trkpt lat="45.0219880" lon="-93.6145430">
        <ele>319.7800000</ele>
        <time>2009-04-19T15:07:38Z</time>
      </trkpt>
      <trkpt lat="45.0221330" lon="-93.6145450">
        <ele>321.7000000</ele>
        <time>2009-04-19T15:07:43Z</time>
      </trkpt>
      <trkpt lat="45.0221750" lon="-93.6145450">
        <ele>321.7000000</ele>
        <time>2009-04-19T15:07:44Z</time>
      </trkpt>
      <trkpt lat="45.0222310" lon="-93.6143640">
        <ele>321.7000000</ele>
        <time>2009-04-19T15:07:45Z</time>
      </trkpt>
      <trkpt lat="45.0222320" lon="-93.6142210">
        <ele>321.7000000</ele>
        <time>2009-04-19T15:07:46Z</time>
      </trkpt>
      <trkpt lat="45.0222330" lon="-93.6140630">
        <ele>321.7000000</ele>
        <time>2009-04-19T15:07:47Z</time>
      </trkpt>
      <trkpt lat="45.0222380" lon="-93.6128760">
        <ele>319.7800000</ele>
        <time>2009-04-19T15:07:52Z</time>
      </trkpt>
      <trkpt lat="45.0222510" lon="-93.6096810">
        <ele>314.4900000</ele>
        <time>2009-04-19T15:08:03Z</time>
      </trkpt>
      <trkpt lat="45.0222650" lon="-93.6063390">
        <ele>318.8100000</ele>
        <time>2009-04-19T15:08:16Z</time>
      </trkpt>
      <trkpt lat="45.0222730" lon="-93.6044630">
        <ele>320.2600000</ele>
        <time>2009-04-19T15:08:26Z</time>
      </trkpt>
      <trkpt lat="45.0222730" lon="-93.6043530">
        <ele>320.2600000</ele>
        <time>2009-04-19T15:08:27Z</time>
      </trkpt>
      <trkpt lat="45.0222740" lon="-93.6042640">
        <ele>320.2600000</ele>
        <time>2009-04-19T15:08:28Z</time>
      </trkpt>
      <trkpt lat="45.0223880" lon="-93.6043320">
        <ele>320.2600000</ele>
        <time>2009-04-19T15:08:29Z</time>
      </trkpt>
      <trkpt lat="45.0224810" lon="-93.6043310">
        <ele>320.2600000</ele>
        <time>2009-04-19T15:08:30Z</time>
      </trkpt>
      <trkpt lat="45.0225930" lon="-93.6043310">
        <ele>320.2600000</ele>
        <time>2009-04-19T15:08:31Z</time>
      </trkpt>
      <trkpt lat="45.0227160" lon="-93.6043300">
        <ele>320.2600000</ele>
        <time>2009-04-19T15:08:32Z</time>
      </trkpt>
      <trkpt lat="45.0243060" lon="-93.6043230">
        <ele>315.4500000</ele>
        <time>2009-04-19T15:08:43Z</time>
      </trkpt>
      <trkpt lat="45.0268880" lon="-93.6043120">
        <ele>315.9300000</ele>
        <time>2009-04-19T15:08:58Z</time>
      </trkpt>
      <trkpt lat="45.0290040" lon="-93.6043030">
        <ele>315.9300000</ele>
        <time>2009-04-19T15:09:10Z</time>
      </trkpt>
      <trkpt lat="45.0312990" lon="-93.6042920">
        <ele>326.0200000</ele>
        <time>2009-04-19T15:09:23Z</time>
      </trkpt>
      <trkpt lat="45.0338020" lon="-93.6042570">
        <ele>316.4100000</ele>
        <time>2009-04-19T15:09:37Z</time>
      </trkpt>
      <trkpt lat="45.0359960" lon="-93.6042170">
        <ele>306.8000000</ele>
        <time>2009-04-19T15:09:51Z</time>
      </trkpt>
      <trkpt lat="45.0361730" lon="-93.6042140">
        <ele>306.8000000</ele>
        <time>2009-04-19T15:09:56Z</time>
      </trkpt>
      <trkpt lat="45.0364340" lon="-93.6042100">
        <ele>307.2800000</ele>
        <time>2009-04-19T15:10:07Z</time>
      </trkpt>
      <trkpt lat="45.0367000" lon="-93.6042050">
        <ele>307.7600000</ele>
        <time>2009-04-19T15:10:18Z</time>
      </trkpt>
      <trkpt lat="45.0367490" lon="-93.6042040">
        <ele>307.7600000</ele>
        <time>2009-04-19T15:10:19Z</time>
      </trkpt>
      <trkpt lat="45.0367820" lon="-93.6043780">
        <ele>307.2800000</ele>
        <time>2009-04-19T15:10:20Z</time>
      </trkpt>
      <trkpt lat="45.0367840" lon="-93.6044960">
        <ele>307.2800000</ele>
        <time>2009-04-19T15:10:21Z</time>
      </trkpt>
      <trkpt lat="45.0367870" lon="-93.6046410">
        <ele>306.8000000</ele>
        <time>2009-04-19T15:10:22Z</time>
      </trkpt>
      <trkpt lat="45.0367900" lon="-93.6048160">
        <ele>306.3200000</ele>
        <time>2009-04-19T15:10:23Z</time>
      </trkpt>
      <trkpt lat="45.0368780" lon="-93.6069130">
        <ele>310.1600000</ele>
        <time>2009-04-19T15:10:33Z</time>
      </trkpt>
      <trkpt lat="45.0369080" lon="-93.6071220">
        <ele>311.1200000</ele>
        <time>2009-04-19T15:10:34Z</time>
      </trkpt>
      <trkpt lat="45.0369770" lon="-93.6073120">
        <ele>311.6000000</ele>
        <time>2009-04-19T15:10:35Z</time>
      </trkpt>
      <trkpt lat="45.0370470" lon="-93.6075050">
        <ele>312.0900000</ele>
        <time>2009-04-19T15:10:36Z</time>
      </trkpt>
      <trkpt lat="45.0371180" lon="-93.6077000">
        <ele>312.5700000</ele>
        <time>2009-04-19T15:10:37Z</time>
      </trkpt>
      <trkpt lat="45.0371890" lon="-93.6078950">
        <ele>313.0500000</ele>
        <time>2009-04-19T15:10:38Z</time>
      </trkpt>
      <trkpt lat="45.0383500" lon="-93.6103450">
        <ele>303.9100000</ele>
        <time>2009-04-19T15:10:50Z</time>
      </trkpt>
      <trkpt lat="45.0398450" lon="-93.6135910">
        <ele>291.4200000</ele>
        <time>2009-04-19T15:11:04Z</time>
      </trkpt>
      <trkpt lat="45.0404990" lon="-93.6160190">
        <ele>295.2600000</ele>
        <time>2009-04-19T15:11:14Z</time>
      </trkpt>
      <trkpt lat="45.0410790" lon="-93.6192790">
        <ele>293.3400000</ele>
        <time>2009-04-19T15:11:28Z</time>
      </trkpt>
      <trkpt lat="45.0420240" lon="-93.6236230">
        <ele>309.2000000</ele>
        <time>2009-04-19T15:11:47Z</time>
      </trkpt>
      <trkpt lat="45.0426960" lon="-93.6262440">
        <ele>305.3600000</ele>
        <time>2009-04-19T15:11:58Z</time>
      </trkpt>
      <trkpt lat="45.0436330" lon="-93.6285450">
        <ele>303.9100000</ele>
        <time>2009-04-19T15:12:09Z</time>
      </trkpt>
      <trkpt lat="45.0447020" lon="-93.6304430">
        <ele>314.0100000</ele>
        <time>2009-04-19T15:12:20Z</time>
      </trkpt>
      <trkpt lat="45.0447550" lon="-93.6306590">
        <ele>314.4900000</ele>
        <time>2009-04-19T15:12:21Z</time>
      </trkpt>
      <trkpt lat="45.0447650" lon="-93.6308720">
        <ele>314.4900000</ele>
        <time>2009-04-19T15:12:22Z</time>
      </trkpt>
      <trkpt lat="45.0447700" lon="-93.6311130">
        <ele>314.4900000</ele>
        <time>2009-04-19T15:12:23Z</time>
      </trkpt>
      <trkpt lat="45.0447740" lon="-93.6313630">
        <ele>314.0100000</ele>
        <time>2009-04-19T15:12:24Z</time>
      </trkpt>
      <trkpt lat="45.0447790" lon="-93.6316120">
        <ele>313.0500000</ele>
        <time>2009-04-19T15:12:25Z</time>
      </trkpt>
      <trkpt lat="45.0448150" lon="-93.6334650">
        <ele>310.6400000</ele>
        <time>2009-04-19T15:12:34Z</time>
      </trkpt>
      <trkpt lat="45.0448300" lon="-93.6342510">
        <ele>309.2000000</ele>
        <time>2009-04-19T15:12:42Z</time>
      </trkpt>
      <trkpt lat="45.0448300" lon="-93.6342510">
        <ele>308.2400000</ele>
        <time>2009-04-19T15:12:59Z</time>
      </trkpt>
      <trkpt lat="45.0448350" lon="-93.6344920">
        <ele>307.2800000</ele>
        <time>2009-04-19T15:13:22Z</time>
      </trkpt>
      <trkpt lat="45.0448460" lon="-93.6350270">
        <ele>307.7600000</ele>
        <time>2009-04-19T15:13:34Z</time>
      </trkpt>
      <trkpt lat="45.0448470" lon="-93.6350900">
        <ele>308.2400000</ele>
        <time>2009-04-19T15:13:35Z</time>
      </trkpt>
      <trkpt lat="45.0447060" lon="-93.6351020">
        <ele>308.2400000</ele>
        <time>2009-04-19T15:13:36Z</time>
      </trkpt>
      <trkpt lat="45.0446110" lon="-93.6351020">
        <ele>309.2000000</ele>
        <time>2009-04-19T15:13:37Z</time>
      </trkpt>
      <trkpt lat="45.0444980" lon="-93.6351020">
        <ele>308.7200000</ele>
        <time>2009-04-19T15:13:38Z</time>
      </trkpt>
      <trkpt lat="45.0443690" lon="-93.6351020">
        <ele>308.7200000</ele>
        <time>2009-04-19T15:13:39Z</time>
      </trkpt>
      <trkpt lat="45.0432850" lon="-93.6350740">
        <ele>305.3600000</ele>
        <time>2009-04-19T15:13:45Z</time>
      </trkpt>
      <trkpt lat="45.0401120" lon="-93.6350010">
        <ele>286.6100000</ele>
        <time>2009-04-19T15:14:00Z</time>
      </trkpt>
      <trkpt lat="45.0373070" lon="-93.6349420">
        <ele>284.6900000</ele>
        <time>2009-04-19T15:14:13Z</time>
      </trkpt>
      <trkpt lat="45.0338740" lon="-93.6350030">
        <ele>300.5500000</ele>
        <time>2009-04-19T15:14:29Z</time>
      </trkpt>
      <trkpt lat="45.0311170" lon="-93.6350730">
        <ele>302.4700000</ele>
        <time>2009-04-19T15:14:44Z</time>
      </trkpt>
      <trkpt lat="45.0291860" lon="-93.6351150">
        <ele>299.5900000</ele>
        <time>2009-04-19T15:14:56Z</time>
      </trkpt>
      <trkpt lat="45.0270130" lon="-93.6350840">
        <ele>295.7400000</ele>
        <time>2009-04-19T15:15:09Z</time>
      </trkpt>
      <trkpt lat="45.0247410" lon="-93.6344480">
        <ele>290.4600000</ele>
        <time>2009-04-19T15:15:21Z</time>
      </trkpt>
      <trkpt lat="45.0229110" lon="-93.6342680">
        <ele>289.4900000</ele>
        <time>2009-04-19T15:15:30Z</time>
      </trkpt>
      <trkpt lat="45.0204080" lon="-93.6348070">
        <ele>310.1600000</ele>
        <time>2009-04-19T15:15:43Z</time>
      </trkpt>
      <trkpt lat="45.0174290" lon="-93.6352310">
        <ele>320.2600000</ele>
        <time>2009-04-19T15:15:58Z</time>
      </trkpt>
      <trkpt lat="45.0152720" lon="-93.6352850">
        <ele>314.9700000</ele>
        <time>2009-04-19T15:16:09Z</time>
      </trkpt>
      <trkpt lat="45.0151320" lon="-93.6353930">
        <ele>315.4500000</ele>
        <time>2009-04-19T15:16:10Z</time>
      </trkpt>
      <trkpt lat="45.0150030" lon="-93.6355740">
        <ele>315.9300000</ele>
        <time>2009-04-19T15:16:11Z</time>
      </trkpt>
      <trkpt lat="45.0149080" lon="-93.6357960">
        <ele>316.4100000</ele>
        <time>2009-04-19T15:16:12Z</time>
      </trkpt>
      <trkpt lat="45.0148920" lon="-93.6360690">
        <ele>317.3700000</ele>
        <time>2009-04-19T15:16:13Z</time>
      </trkpt>
      <trkpt lat="45.0148920" lon="-93.6363230">
        <ele>318.3300000</ele>
        <time>2009-04-19T15:16:14Z</time>
      </trkpt>
      <trkpt lat="45.0148920" lon="-93.6365810">
        <ele>319.3000000</ele>
        <time>2009-04-19T15:16:15Z</time>
      </trkpt>
      <trkpt lat="45.0148920" lon="-93.6368430">
        <ele>320.2600000</ele>
        <time>2009-04-19T15:16:16Z</time>
      </trkpt>
      <trkpt lat="45.0148920" lon="-93.6411720">
        <ele>326.5000000</ele>
        <time>2009-04-19T15:16:33Z</time>
      </trkpt>
      <trkpt lat="45.0148920" lon="-93.6434400">
        <ele>322.6600000</ele>
        <time>2009-04-19T15:16:44Z</time>
      </trkpt>
      <trkpt lat="45.0148200" lon="-93.6454230">
        <ele>317.3700000</ele>
        <time>2009-04-19T15:16:54Z</time>
      </trkpt>
      <trkpt lat="45.0147630" lon="-93.6455740">
        <ele>316.8900000</ele>
        <time>2009-04-19T15:16:55Z</time>
      </trkpt>
      <trkpt lat="45.0146500" lon="-93.6456500">
        <ele>316.8900000</ele>
        <time>2009-04-19T15:16:56Z</time>
      </trkpt>
      <trkpt lat="45.0145120" lon="-93.6456600">
        <ele>316.8900000</ele>
        <time>2009-04-19T15:16:57Z</time>
      </trkpt>
      <trkpt lat="45.0143500" lon="-93.6456600">
        <ele>317.3700000</ele>
        <time>2009-04-19T15:16:58Z</time>
      </trkpt>
      <trkpt lat="45.0141880" lon="-93.6456600">
        <ele>316.4100000</ele>
        <time>2009-04-19T15:16:59Z</time>
      </trkpt>
      <trkpt lat="45.0126610" lon="-93.6456600">
        <ele>312.0900000</ele>
        <time>2009-04-19T15:17:09Z</time>
      </trkpt>
      <trkpt lat="45.0098540" lon="-93.6456600">
        <ele>302.9500000</ele>
        <time>2009-04-19T15:17:26Z</time>
      </trkpt>
      <trkpt lat="45.0087420" lon="-93.6456600">
        <ele>303.9100000</ele>
        <time>2009-04-19T15:17:36Z</time>
      </trkpt>
      <trkpt lat="45.0086980" lon="-93.6456600">
        <ele>304.3900000</ele>
        <time>2009-04-19T15:17:37Z</time>
      </trkpt>
      <trkpt lat="45.0086690" lon="-93.6456600">
        <ele>304.3900000</ele>
        <time>2009-04-19T15:17:38Z</time>
      </trkpt>
      <trkpt lat="45.0086690" lon="-93.6457620">
        <ele>304.8800000</ele>
        <time>2009-04-19T15:17:39Z</time>
      </trkpt>
      <trkpt lat="45.0086690" lon="-93.6458260">
        <ele>304.8800000</ele>
        <time>2009-04-19T15:17:40Z</time>
      </trkpt>
      <trkpt lat="45.0086690" lon="-93.6459060">
        <ele>305.3600000</ele>
        <time>2009-04-19T15:17:41Z</time>
      </trkpt>
      <trkpt lat="45.0086690" lon="-93.6460050">
        <ele>305.8400000</ele>
        <time>2009-04-19T15:17:42Z</time>
      </trkpt>
      <trkpt lat="45.0086690" lon="-93.6472810">
        <ele>307.2800000</ele>
        <time>2009-04-19T15:17:51Z</time>
      </trkpt>
      <trkpt lat="45.0086690" lon="-93.6487970">
        <ele>306.3200000</ele>
        <time>2009-04-19T15:18:02Z</time>
      </trkpt>
      <trkpt lat="45.0086690" lon="-93.6490060">
        <ele>305.3600000</ele>
        <time>2009-04-19T15:18:08Z</time>
      </trkpt>
      <trkpt lat="45.0086690" lon="-93.6492510">
        <ele>302.4700000</ele>
        <time>2009-04-19T15:18:20Z</time>
      </trkpt>
      <trkpt lat="45.0086690" lon="-93.6497970">
        <ele>297.1800000</ele>
        <time>2009-04-19T15:18:33Z</time>
      </trkpt>
      <trkpt lat="45.0086690" lon="-93.6508500">
        <ele>297.6700000</ele>
        <time>2009-04-19T15:18:40Z</time>
      </trkpt>
      <trkpt lat="45.0086690" lon="-93.6522730">
        <ele>307.2800000</ele>
        <time>2009-04-19T15:18:50Z</time>
      </trkpt>
      <trkpt lat="45.0086530" lon="-93.6538480">
        <ele>308.7200000</ele>
        <time>2009-04-19T15:19:00Z</time>
      </trkpt>
      <trkpt lat="45.0086310" lon="-93.6554800">
        <ele>309.6800000</ele>
        <time>2009-04-19T15:19:11Z</time>
      </trkpt>
      <trkpt lat="45.0086270" lon="-93.6558050">
        <ele>310.6400000</ele>
        <time>2009-04-19T15:19:18Z</time>
      </trkpt>
      <trkpt lat="45.0086890" lon="-93.6558320">
        <ele>311.1200000</ele>
        <time>2009-04-19T15:19:19Z</time>
      </trkpt>
      <trkpt lat="45.0087500" lon="-93.6558330">
        <ele>311.6000000</ele>
        <time>2009-04-19T15:19:20Z</time>
      </trkpt>
      <trkpt lat="45.0088240" lon="-93.6558340">
        <ele>311.6000000</ele>
        <time>2009-04-19T15:19:21Z</time>
      </trkpt>
      <trkpt lat="45.0089090" lon="-93.6558360">
        <ele>312.0900000</ele>
        <time>2009-04-19T15:19:22Z</time>
      </trkpt>
      <trkpt lat="45.0098210" lon="-93.6558530">
        <ele>314.0100000</ele>
        <time>2009-04-19T15:19:29Z</time>
      </trkpt>
      <trkpt lat="45.0125170" lon="-93.6558730">
        <ele>318.8100000</ele>
        <time>2009-04-19T15:19:47Z</time>
      </trkpt>
      <trkpt lat="45.0151160" lon="-93.6559190">
        <ele>321.2200000</ele>
        <time>2009-04-19T15:20:04Z</time>
      </trkpt>
      <trkpt lat="45.0175380" lon="-93.6559480">
        <ele>310.6400000</ele>
        <time>2009-04-19T15:20:22Z</time>
      </trkpt>
      <trkpt lat="45.0182970" lon="-93.6559570">
        <ele>312.0900000</ele>
        <time>2009-04-19T15:20:31Z</time>
      </trkpt>
      <trkpt lat="45.0184040" lon="-93.6559580">
        <ele>312.0900000</ele>
        <time>2009-04-19T15:20:39Z</time>
      </trkpt>
      <trkpt lat="45.0184970" lon="-93.6559590">
        <ele>312.0900000</ele>
        <time>2009-04-19T15:20:42Z</time>
      </trkpt>
      <trkpt lat="45.0185280" lon="-93.6559600">
        <ele>312.0900000</ele>
        <time>2009-04-19T15:20:43Z</time>
      </trkpt>
      <trkpt lat="45.0184960" lon="-93.6560730">
        <ele>311.1200000</ele>
        <time>2009-04-19T15:20:44Z</time>
      </trkpt>
      <trkpt lat="45.0184950" lon="-93.6561860">
        <ele>310.6400000</ele>
        <time>2009-04-19T15:20:45Z</time>
      </trkpt>
      <trkpt lat="45.0184930" lon="-93.6563370">
        <ele>309.6800000</ele>
        <time>2009-04-19T15:20:46Z</time>
      </trkpt>
      <trkpt lat="45.0184800" lon="-93.6576910">
        <ele>303.9100000</ele>
        <time>2009-04-19T15:20:52Z</time>
      </trkpt>
      <trkpt lat="45.0184650" lon="-93.6615950">
        <ele>294.7800000</ele>
        <time>2009-04-19T15:21:08Z</time>
      </trkpt>
      <trkpt lat="45.0185050" lon="-93.6618180">
        <ele>294.7800000</ele>
        <time>2009-04-19T15:21:09Z</time>
      </trkpt>
      <trkpt lat="45.0185500" lon="-93.6620360">
        <ele>295.2600000</ele>
        <time>2009-04-19T15:21:10Z</time>
      </trkpt>
      <trkpt lat="45.0186350" lon="-93.6622530">
        <ele>295.2600000</ele>
        <time>2009-04-19T15:21:11Z</time>
      </trkpt>
      <trkpt lat="45.0187220" lon="-93.6624750">
        <ele>295.7400000</ele>
        <time>2009-04-19T15:21:12Z</time>
      </trkpt>
      <trkpt lat="45.0188080" lon="-93.6626960">
        <ele>295.7400000</ele>
        <time>2009-04-19T15:21:13Z</time>
      </trkpt>
      <trkpt lat="45.0193460" lon="-93.6641180">
        <ele>296.7000000</ele>
        <time>2009-04-19T15:21:20Z</time>
      </trkpt>
      <trkpt lat="45.0193950" lon="-93.6643170">
        <ele>296.7000000</ele>
        <time>2009-04-19T15:21:21Z</time>
      </trkpt>
      <trkpt lat="45.0194410" lon="-93.6645090">
        <ele>296.7000000</ele>
        <time>2009-04-19T15:21:22Z</time>
      </trkpt>
      <trkpt lat="45.0194410" lon="-93.6647160">
        <ele>296.7000000</ele>
        <time>2009-04-19T15:21:23Z</time>
      </trkpt>
      <trkpt lat="45.0194410" lon="-93.6649270">
        <ele>296.7000000</ele>
        <time>2009-04-19T15:21:24Z</time>
      </trkpt>
      <trkpt lat="45.0194410" lon="-93.6651380">
        <ele>296.7000000</ele>
        <time>2009-04-19T15:21:25Z</time>
      </trkpt>
      <trkpt lat="45.0194130" lon="-93.6653370">
        <ele>296.7000000</ele>
        <time>2009-04-19T15:21:26Z</time>
      </trkpt>
      <trkpt lat="45.0193830" lon="-93.6655430">
        <ele>296.7000000</ele>
        <time>2009-04-19T15:21:27Z</time>
      </trkpt>
      <trkpt lat="45.0190070" lon="-93.6690180">
        <ele>300.0700000</ele>
        <time>2009-04-19T15:21:44Z</time>
      </trkpt>
      <trkpt lat="45.0190380" lon="-93.6692170">
        <ele>300.0700000</ele>
        <time>2009-04-19T15:21:45Z</time>
      </trkpt>
      <trkpt lat="45.0190800" lon="-93.6694160">
        <ele>300.5500000</ele>
        <time>2009-04-19T15:21:46Z</time>
      </trkpt>
      <trkpt lat="45.0191210" lon="-93.6696100">
        <ele>300.5500000</ele>
        <time>2009-04-19T15:21:47Z</time>
      </trkpt>
      <trkpt lat="45.0191610" lon="-93.6697990">
        <ele>301.0300000</ele>
        <time>2009-04-19T15:21:48Z</time>
      </trkpt>
      <trkpt lat="45.0198660" lon="-93.6713680">
        <ele>301.0300000</ele>
        <time>2009-04-19T15:21:57Z</time>
      </trkpt>
      <trkpt lat="45.0216500" lon="-93.6743410">
        <ele>300.5500000</ele>
        <time>2009-04-19T15:22:14Z</time>
      </trkpt>
      <trkpt lat="45.0220460" lon="-93.6749920">
        <ele>302.4700000</ele>
        <time>2009-04-19T15:22:18Z</time>
      </trkpt>
      <trkpt lat="45.0220850" lon="-93.6751800">
        <ele>302.4700000</ele>
        <time>2009-04-19T15:22:19Z</time>
      </trkpt>
      <trkpt lat="45.0221190" lon="-93.6754010">
        <ele>301.9900000</ele>
        <time>2009-04-19T15:22:20Z</time>
      </trkpt>
      <trkpt lat="45.0221470" lon="-93.6756160">
        <ele>301.9900000</ele>
        <time>2009-04-19T15:22:21Z</time>
      </trkpt>
      <trkpt lat="45.0221590" lon="-93.6758390">
        <ele>301.5100000</ele>
        <time>2009-04-19T15:22:22Z</time>
      </trkpt>
      <trkpt lat="45.0221700" lon="-93.6760570">
        <ele>301.5100000</ele>
        <time>2009-04-19T15:22:23Z</time>
      </trkpt>
      <trkpt lat="45.0222450" lon="-93.6789680">
        <ele>303.9100000</ele>
        <time>2009-04-19T15:22:36Z</time>
      </trkpt>
      <trkpt lat="45.0222860" lon="-93.6834390">
        <ele>299.5900000</ele>
        <time>2009-04-19T15:22:55Z</time>
      </trkpt>
      <trkpt lat="45.0223070" lon="-93.6856750">
        <ele>299.5900000</ele>
        <time>2009-04-19T15:23:07Z</time>
      </trkpt>
      <trkpt lat="45.0223090" lon="-93.6858910">
        <ele>301.0300000</ele>
        <time>2009-04-19T15:23:11Z</time>
      </trkpt>
      <trkpt lat="45.0223120" lon="-93.6861880">
        <ele>301.9900000</ele>
        <time>2009-04-19T15:23:20Z</time>
      </trkpt>
      <trkpt lat="45.0223150" lon="-93.6865430">
        <ele>302.9500000</ele>
        <time>2009-04-19T15:23:28Z</time>
      </trkpt>
      <trkpt lat="45.0223160" lon="-93.6866710">
        <ele>302.9500000</ele>
        <time>2009-04-19T15:23:31Z</time>
      </trkpt>
      <trkpt lat="45.0224200" lon="-93.6867300">
        <ele>302.9500000</ele>
        <time>2009-04-19T15:23:32Z</time>
      </trkpt>
      <trkpt lat="45.0224900" lon="-93.6867300">
        <ele>303.4300000</ele>
        <time>2009-04-19T15:23:33Z</time>
      </trkpt>
      <trkpt lat="45.0225860" lon="-93.6867300">
        <ele>303.4300000</ele>
        <time>2009-04-19T15:23:34Z</time>
      </trkpt>
      <trkpt lat="45.0226970" lon="-93.6867300">
        <ele>303.4300000</ele>
        <time>2009-04-19T15:23:35Z</time>
      </trkpt>
      <trkpt lat="45.0236550" lon="-93.6867300">
        <ele>303.4300000</ele>
        <time>2009-04-19T15:23:41Z</time>
      </trkpt>
      <trkpt lat="45.0260010" lon="-93.6867590">
        <ele>309.6800000</ele>
        <time>2009-04-19T15:23:54Z</time>
      </trkpt>
      <trkpt lat="45.0298380" lon="-93.6868390">
        <ele>310.6400000</ele>
        <time>2009-04-19T15:24:15Z</time>
      </trkpt>
      <trkpt lat="45.0329750" lon="-93.6868610">
        <ele>312.5700000</ele>
        <time>2009-04-19T15:24:32Z</time>
      </trkpt>
      <trkpt lat="45.0354330" lon="-93.6869010">
        <ele>313.0500000</ele>
        <time>2009-04-19T15:24:46Z</time>
      </trkpt>
      <trkpt lat="45.0386280" lon="-93.6869010">
        <ele>309.6800000</ele>
        <time>2009-04-19T15:25:03Z</time>
      </trkpt>
      <trkpt lat="45.0421760" lon="-93.6868630">
        <ele>313.5300000</ele>
        <time>2009-04-19T15:25:23Z</time>
      </trkpt>
      <trkpt lat="45.0425490" lon="-93.6868120">
        <ele>314.4900000</ele>
        <time>2009-04-19T15:25:25Z</time>
      </trkpt>
      <trkpt lat="45.0427330" lon="-93.6867300">
        <ele>315.4500000</ele>
        <time>2009-04-19T15:25:26Z</time>
      </trkpt>
      <trkpt lat="45.0429070" lon="-93.6866250">
        <ele>316.4100000</ele>
        <time>2009-04-19T15:25:27Z</time>
      </trkpt>
      <trkpt lat="45.0430650" lon="-93.6864900">
        <ele>316.8900000</ele>
        <time>2009-04-19T15:25:28Z</time>
      </trkpt>
      <trkpt lat="45.0432060" lon="-93.6863180">
        <ele>317.8500000</ele>
        <time>2009-04-19T15:25:29Z</time>
      </trkpt>
      <trkpt lat="45.0433430" lon="-93.6861500">
        <ele>318.3300000</ele>
        <time>2009-04-19T15:25:30Z</time>
      </trkpt>
      <trkpt lat="45.0434560" lon="-93.6859750">
        <ele>319.3000000</ele>
        <time>2009-04-19T15:25:31Z</time>
      </trkpt>
      <trkpt lat="45.0435380" lon="-93.6857570">
        <ele>319.7800000</ele>
        <time>2009-04-19T15:25:32Z</time>
      </trkpt>
      <trkpt lat="45.0436130" lon="-93.6855370">
        <ele>320.7400000</ele>
        <time>2009-04-19T15:25:33Z</time>
      </trkpt>
      <trkpt lat="45.0436860" lon="-93.6853130">
        <ele>321.7000000</ele>
        <time>2009-04-19T15:25:34Z</time>
      </trkpt>
      <trkpt lat="45.0448770" lon="-93.6815930">
        <ele>322.6600000</ele>
        <time>2009-04-19T15:25:50Z</time>
      </trkpt>
      <trkpt lat="45.0452350" lon="-93.6792830">
        <ele>315.4500000</ele>
        <time>2009-04-19T15:25:59Z</time>
      </trkpt>
      <trkpt lat="45.0454310" lon="-93.6779800">
        <ele>314.4900000</ele>
        <time>2009-04-19T15:26:04Z</time>
      </trkpt>
      <trkpt lat="45.0455090" lon="-93.6777570">
        <ele>314.4900000</ele>
        <time>2009-04-19T15:26:05Z</time>
      </trkpt>
      <trkpt lat="45.0456120" lon="-93.6775340">
        <ele>314.4900000</ele>
        <time>2009-04-19T15:26:06Z</time>
      </trkpt>
      <trkpt lat="45.0457150" lon="-93.6773210">
        <ele>314.4900000</ele>
        <time>2009-04-19T15:26:07Z</time>
      </trkpt>
      <trkpt lat="45.0458730" lon="-93.6771630">
        <ele>314.0100000</ele>
        <time>2009-04-19T15:26:08Z</time>
      </trkpt>
      <trkpt lat="45.0460340" lon="-93.6770030">
        <ele>313.5300000</ele>
        <time>2009-04-19T15:26:09Z</time>
      </trkpt>
      <trkpt lat="45.0461890" lon="-93.6768790">
        <ele>313.0500000</ele>
        <time>2009-04-19T15:26:10Z</time>
      </trkpt>
      <trkpt lat="45.0463760" lon="-93.6768020">
        <ele>312.5700000</ele>
        <time>2009-04-19T15:26:11Z</time>
      </trkpt>
      <trkpt lat="45.0465640" lon="-93.6767230">
        <ele>312.5700000</ele>
        <time>2009-04-19T15:26:12Z</time>
      </trkpt>
      <trkpt lat="45.0467370" lon="-93.6766850">
        <ele>312.5700000</ele>
        <time>2009-04-19T15:26:13Z</time>
      </trkpt>
      <trkpt lat="45.0469280" lon="-93.6766800">
        <ele>313.0500000</ele>
        <time>2009-04-19T15:26:14Z</time>
      </trkpt>
      <trkpt lat="45.0471160" lon="-93.6766750">
        <ele>313.5300000</ele>
        <time>2009-04-19T15:26:15Z</time>
      </trkpt>
      <trkpt lat="45.0485540" lon="-93.6766440">
        <ele>314.4900000</ele>
        <time>2009-04-19T15:26:24Z</time>
      </trkpt>
      <trkpt lat="45.0501790" lon="-93.6766440">
        <ele>309.6800000</ele>
        <time>2009-04-19T15:26:39Z</time>
      </trkpt>
      <trkpt lat="45.0507300" lon="-93.6766440">
        <ele>308.7200000</ele>
        <time>2009-04-19T15:26:47Z</time>
      </trkpt>
      <trkpt lat="45.0509680" lon="-93.6766440">
        <ele>308.7200000</ele>
        <time>2009-04-19T15:26:58Z</time>
      </trkpt>
      <trkpt lat="45.0514220" lon="-93.6766430">
        <ele>308.7200000</ele>
        <time>2009-04-19T15:27:05Z</time>
      </trkpt>
      <trkpt lat="45.0527470" lon="-93.6766350">
        <ele>310.1600000</ele>
        <time>2009-04-19T15:27:14Z</time>
      </trkpt>
      <trkpt lat="45.0551870" lon="-93.6766220">
        <ele>314.9700000</ele>
        <time>2009-04-19T15:27:29Z</time>
      </trkpt>
      <trkpt lat="45.0578220" lon="-93.6766080">
        <ele>312.0900000</ele>
        <time>2009-04-19T15:27:46Z</time>
      </trkpt>
      <trkpt lat="45.0590160" lon="-93.6766390">
        <ele>317.3700000</ele>
        <time>2009-04-19T15:27:55Z</time>
      </trkpt>
      <trkpt lat="45.0591240" lon="-93.6766820">
        <ele>317.8500000</ele>
        <time>2009-04-19T15:27:56Z</time>
      </trkpt>
      <trkpt lat="45.0591980" lon="-93.6767740">
        <ele>317.8500000</ele>
        <time>2009-04-19T15:27:57Z</time>
      </trkpt>
      <trkpt lat="45.0592720" lon="-93.6768810">
        <ele>318.3300000</ele>
        <time>2009-04-19T15:27:58Z</time>
      </trkpt>
      <trkpt lat="45.0593450" lon="-93.6769870">
        <ele>317.8500000</ele>
        <time>2009-04-19T15:27:59Z</time>
      </trkpt>
      <trkpt lat="45.0594210" lon="-93.6770960">
        <ele>317.8500000</ele>
        <time>2009-04-19T15:28:00Z</time>
      </trkpt>
      <trkpt lat="45.0594980" lon="-93.6772080">
        <ele>317.3700000</ele>
        <time>2009-04-19T15:28:01Z</time>
      </trkpt>
      <trkpt lat="45.0601490" lon="-93.6780260">
        <ele>315.9300000</ele>
        <time>2009-04-19T15:28:09Z</time>
      </trkpt>
      <trkpt lat="45.0602160" lon="-93.6780890">
        <ele>315.9300000</ele>
        <time>2009-04-19T15:28:10Z</time>
      </trkpt>
      <trkpt lat="45.0604600" lon="-93.6783160">
        <ele>318.3300000</ele>
        <time>2009-04-19T15:28:17Z</time>
      </trkpt>
      <trkpt lat="45.0608440" lon="-93.6787260">
        <ele>319.7800000</ele>
        <time>2009-04-19T15:28:26Z</time>
      </trkpt>
      <trkpt lat="45.0616670" lon="-93.6798070">
        <ele>317.3700000</ele>
        <time>2009-04-19T15:28:35Z</time>
      </trkpt>
      <trkpt lat="45.0617510" lon="-93.6799570">
        <ele>317.3700000</ele>
        <time>2009-04-19T15:28:36Z</time>
      </trkpt>
      <trkpt lat="45.0618340" lon="-93.6801060">
        <ele>317.3700000</ele>
        <time>2009-04-19T15:28:37Z</time>
      </trkpt>
      <trkpt lat="45.0618930" lon="-93.6802860">
        <ele>316.8900000</ele>
        <time>2009-04-19T15:28:38Z</time>
      </trkpt>
      <trkpt lat="45.0623740" lon="-93.6818420">
        <ele>311.1200000</ele>
        <time>2009-04-19T15:28:48Z</time>
      </trkpt>
      <trkpt lat="45.0627620" lon="-93.6839280">
        <ele>309.2000000</ele>
        <time>2009-04-19T15:29:01Z</time>
      </trkpt>
      <trkpt lat="45.0627470" lon="-93.6840990">
        <ele>309.6800000</ele>
        <time>2009-04-19T15:29:02Z</time>
      </trkpt>
      <trkpt lat="45.0627220" lon="-93.6842570">
        <ele>310.1600000</ele>
        <time>2009-04-19T15:29:03Z</time>
      </trkpt>
      <trkpt lat="45.0627000" lon="-93.6843690">
        <ele>310.6400000</ele>
        <time>2009-04-19T15:29:04Z</time>
      </trkpt>
      <trkpt lat="45.0627000" lon="-93.6843690">
        <ele>310.6400000</ele>
        <time>2009-04-19T15:29:05Z</time>
      </trkpt>
      <trkpt lat="45.0625200" lon="-93.6846320">
        <ele>310.6400000</ele>
        <time>2009-04-19T15:29:06Z</time>
      </trkpt>
      <trkpt lat="45.0624330" lon="-93.6847600">
        <ele>310.6400000</ele>
        <time>2009-04-19T15:29:07Z</time>
      </trkpt>
      <trkpt lat="45.0623440" lon="-93.6848890">
        <ele>310.1600000</ele>
        <time>2009-04-19T15:29:08Z</time>
      </trkpt>
      <trkpt lat="45.0622540" lon="-93.6850220">
        <ele>310.1600000</ele>
        <time>2009-04-19T15:29:09Z</time>
      </trkpt>
      <trkpt lat="45.0618870" lon="-93.6858640">
        <ele>311.1200000</ele>
        <time>2009-04-19T15:29:14Z</time>
      </trkpt>
      <trkpt lat="45.0618450" lon="-93.6860560">
        <ele>311.6000000</ele>
        <time>2009-04-19T15:29:15Z</time>
      </trkpt>
      <trkpt lat="45.0618030" lon="-93.6862500">
        <ele>311.6000000</ele>
        <time>2009-04-19T15:29:16Z</time>
      </trkpt>
      <trkpt lat="45.0617610" lon="-93.6864490">
        <ele>312.0900000</ele>
        <time>2009-04-19T15:29:17Z</time>
      </trkpt>
      <trkpt lat="45.0617700" lon="-93.6866710">
        <ele>312.0900000</ele>
        <time>2009-04-19T15:29:18Z</time>
      </trkpt>
      <trkpt lat="45.0617860" lon="-93.6868960">
        <ele>312.0900000</ele>
        <time>2009-04-19T15:29:19Z</time>
      </trkpt>
      <trkpt lat="45.0618070" lon="-93.6871220">
        <ele>312.0900000</ele>
        <time>2009-04-19T15:29:20Z</time>
      </trkpt>
      <trkpt lat="45.0618450" lon="-93.6873510">
        <ele>312.0900000</ele>
        <time>2009-04-19T15:29:21Z</time>
      </trkpt>
      <trkpt lat="45.0618830" lon="-93.6875800">
        <ele>311.6000000</ele>
        <time>2009-04-19T15:29:22Z</time>
      </trkpt>
      <trkpt lat="45.0619570" lon="-93.6877900">
        <ele>311.6000000</ele>
        <time>2009-04-19T15:29:23Z</time>
      </trkpt>
      <trkpt lat="45.0620330" lon="-93.6880040">
        <ele>311.1200000</ele>
        <time>2009-04-19T15:29:24Z</time>
      </trkpt>
      <trkpt lat="45.0621130" lon="-93.6882150">
        <ele>310.6400000</ele>
        <time>2009-04-19T15:29:25Z</time>
      </trkpt>
      <trkpt lat="45.0622180" lon="-93.6884050">
        <ele>310.6400000</ele>
        <time>2009-04-19T15:29:26Z</time>
      </trkpt>
      <trkpt lat="45.0633600" lon="-93.6906810">
        <ele>316.8900000</ele>
        <time>2009-04-19T15:29:38Z</time>
      </trkpt>
      <trkpt lat="45.0633860" lon="-93.6908920">
        <ele>317.3700000</ele>
        <time>2009-04-19T15:29:39Z</time>
      </trkpt>
      <trkpt lat="45.0634030" lon="-93.6910990">
        <ele>317.3700000</ele>
        <time>2009-04-19T15:29:40Z</time>
      </trkpt>
      <trkpt lat="45.0634680" lon="-93.6919140">
        <ele>316.8900000</ele>
        <time>2009-04-19T15:29:45Z</time>
      </trkpt>
      <trkpt lat="45.0634700" lon="-93.6919920">
        <ele>316.4100000</ele>
        <time>2009-04-19T15:29:46Z</time>
      </trkpt>
      <trkpt lat="45.0635290" lon="-93.6919720">
        <ele>315.9300000</ele>
        <time>2009-04-19T15:29:47Z</time>
      </trkpt>
      <trkpt lat="45.0635860" lon="-93.6919790">
        <ele>315.4500000</ele>
        <time>2009-04-19T15:29:48Z</time>
      </trkpt>
      <trkpt lat="45.0636510" lon="-93.6919880">
        <ele>314.9700000</ele>
        <time>2009-04-19T15:29:49Z</time>
      </trkpt>
      <trkpt lat="45.0637220" lon="-93.6919960">
        <ele>314.9700000</ele>
        <time>2009-04-19T15:29:50Z</time>
      </trkpt>
      <trkpt lat="45.0639600" lon="-93.6919500">
        <ele>313.5300000</ele>
        <time>2009-04-19T15:29:53Z</time>
      </trkpt>
      <trkpt lat="45.0640390" lon="-93.6919150">
        <ele>313.0500000</ele>
        <time>2009-04-19T15:29:54Z</time>
      </trkpt>
      <trkpt lat="45.0641100" lon="-93.6918530">
        <ele>312.5700000</ele>
        <time>2009-04-19T15:29:55Z</time>
      </trkpt>
      <trkpt lat="45.0646360" lon="-93.6913970">
        <ele>309.2000000</ele>
        <time>2009-04-19T15:30:03Z</time>
      </trkpt>
      <trkpt lat="45.0646740" lon="-93.6913640">
        <ele>309.2000000</ele>
        <time>2009-04-19T15:30:04Z</time>
      </trkpt>
      <trkpt lat="45.0646740" lon="-93.6913640">
        <ele>308.7200000</ele>
        <time>2009-04-19T15:30:05Z</time>
      </trkpt>
      <trkpt lat="45.0646740" lon="-93.6913640">
        <ele>308.7200000</ele>
        <time>2009-04-19T15:30:06Z</time>
      </trkpt>
      <trkpt lat="45.0646450" lon="-93.6913900">
        <ele>308.2400000</ele>
        <time>2009-04-19T15:30:09Z</time>
      </trkpt>
      <trkpt lat="45.0645680" lon="-93.6914560">
        <ele>308.2400000</ele>
        <time>2009-04-19T15:30:10Z</time>
      </trkpt>
      <trkpt lat="45.0644820" lon="-93.6915310">
        <ele>308.7200000</ele>
        <time>2009-04-19T15:30:11Z</time>
      </trkpt>
      <trkpt lat="45.0643940" lon="-93.6916070">
        <ele>309.6800000</ele>
        <time>2009-04-19T15:30:12Z</time>
      </trkpt>
      <trkpt lat="45.0643100" lon="-93.6916800">
        <ele>310.1600000</ele>
        <time>2009-04-19T15:30:13Z</time>
      </trkpt>
      <trkpt lat="45.0642390" lon="-93.6917420">
        <ele>311.1200000</ele>
        <time>2009-04-19T15:30:14Z</time>
      </trkpt>
      <trkpt lat="45.0640550" lon="-93.6919010">
        <ele>314.0100000</ele>
        <time>2009-04-19T15:30:21Z</time>
      </trkpt>
      <trkpt lat="45.0639950" lon="-93.6919360">
        <ele>315.9300000</ele>
        <time>2009-04-19T15:30:36Z</time>
      </trkpt>
      <trkpt lat="45.0637370" lon="-93.6919980">
        <ele>317.3700000</ele>
        <time>2009-04-19T15:30:45Z</time>
      </trkpt>
      <trkpt lat="45.0634870" lon="-93.6919670">
        <ele>317.3700000</ele>
        <time>2009-04-19T15:30:56Z</time>
      </trkpt>
      <trkpt lat="45.0634720" lon="-93.6919650">
        <ele>317.3700000</ele>
        <time>2009-04-19T15:30:57Z</time>
      </trkpt>
      <trkpt lat="45.0634660" lon="-93.6918890">
        <ele>316.8900000</ele>
        <time>2009-04-19T15:30:58Z</time>
      </trkpt>
      <trkpt lat="45.0634580" lon="-93.6917920">
        <ele>316.8900000</ele>
        <time>2009-04-19T15:30:59Z</time>
      </trkpt>
      <trkpt lat="45.0634490" lon="-93.6916790">
        <ele>316.8900000</ele>
        <time>2009-04-19T15:31:00Z</time>
      </trkpt>
      <trkpt lat="45.0634390" lon="-93.6915530">
        <ele>316.8900000</ele>
        <time>2009-04-19T15:31:01Z</time>
      </trkpt>
      <trkpt lat="45.0633610" lon="-93.6906910">
        <ele>315.4500000</ele>
        <time>2009-04-19T15:31:06Z</time>
      </trkpt>
      <trkpt lat="45.0633220" lon="-93.6905020">
        <ele>314.9700000</ele>
        <time>2009-04-19T15:31:07Z</time>
      </trkpt>
      <trkpt lat="45.0632480" lon="-93.6903440">
        <ele>314.4900000</ele>
        <time>2009-04-19T15:31:08Z</time>
      </trkpt>
      <trkpt lat="45.0631720" lon="-93.6901820">
        <ele>313.5300000</ele>
        <time>2009-04-19T15:31:09Z</time>
      </trkpt>
      <trkpt lat="45.0630960" lon="-93.6900190">
        <ele>313.0500000</ele>
        <time>2009-04-19T15:31:10Z</time>
      </trkpt>
      <trkpt lat="45.0618850" lon="-93.6875900">
        <ele>308.7200000</ele>
        <time>2009-04-19T15:31:26Z</time>
      </trkpt>
      <trkpt lat="45.0617710" lon="-93.6864020">
        <ele>309.6800000</ele>
        <time>2009-04-19T15:31:33Z</time>
      </trkpt>
      <trkpt lat="45.0620970" lon="-93.6853060">
        <ele>307.7600000</ele>
        <time>2009-04-19T15:31:40Z</time>
      </trkpt>
      <trkpt lat="45.0625840" lon="-93.6845390">
        <ele>308.2400000</ele>
        <time>2009-04-19T15:31:46Z</time>
      </trkpt>
      <trkpt lat="45.0626710" lon="-93.6844110">
        <ele>308.2400000</ele>
        <time>2009-04-19T15:31:47Z</time>
      </trkpt>
      <trkpt lat="45.0627270" lon="-93.6842360">
        <ele>308.2400000</ele>
        <time>2009-04-19T15:31:48Z</time>
      </trkpt>
      <trkpt lat="45.0627510" lon="-93.6840560">
        <ele>308.2400000</ele>
        <time>2009-04-19T15:31:49Z</time>
      </trkpt>
      <trkpt lat="45.0627660" lon="-93.6838730">
        <ele>307.7600000</ele>
        <time>2009-04-19T15:31:50Z</time>
      </trkpt>
      <trkpt lat="45.0627810" lon="-93.6836920">
        <ele>307.2800000</ele>
        <time>2009-04-19T15:31:51Z</time>
      </trkpt>
      <trkpt lat="45.0627560" lon="-93.6835090">
        <ele>307.2800000</ele>
        <time>2009-04-19T15:31:52Z</time>
      </trkpt>
      <trkpt lat="45.0627180" lon="-93.6833370">
        <ele>306.8000000</ele>
        <time>2009-04-19T15:31:53Z</time>
      </trkpt>
      <trkpt lat="45.0626800" lon="-93.6831690">
        <ele>306.8000000</ele>
        <time>2009-04-19T15:31:54Z</time>
      </trkpt>
      <trkpt lat="45.0621550" lon="-93.6811330">
        <ele>311.6000000</ele>
        <time>2009-04-19T15:32:07Z</time>
      </trkpt>
      <trkpt lat="45.0617300" lon="-93.6799190">
        <ele>315.9300000</ele>
        <time>2009-04-19T15:32:15Z</time>
      </trkpt>
      <trkpt lat="45.0616590" lon="-93.6797930">
        <ele>315.9300000</ele>
        <time>2009-04-19T15:32:16Z</time>
      </trkpt>
      <trkpt lat="45.0615850" lon="-93.6796790">
        <ele>315.4500000</ele>
        <time>2009-04-19T15:32:17Z</time>
      </trkpt>
      <trkpt lat="45.0610470" lon="-93.6789730">
        <ele>315.4500000</ele>
        <time>2009-04-19T15:32:26Z</time>
      </trkpt>
      <trkpt lat="45.0610470" lon="-93.6789730">
        <ele>315.4500000</ele>
        <time>2009-04-19T15:32:40Z</time>
      </trkpt>
      <trkpt lat="45.0608570" lon="-93.6787410">
        <ele>315.4500000</ele>
        <time>2009-04-19T15:32:50Z</time>
      </trkpt>
      <trkpt lat="45.0606500" lon="-93.6785110">
        <ele>314.4900000</ele>
        <time>2009-04-19T15:32:59Z</time>
      </trkpt>
      <trkpt lat="45.0602690" lon="-93.6781380">
        <ele>312.0900000</ele>
        <time>2009-04-19T15:33:06Z</time>
      </trkpt>
      <trkpt lat="45.0596280" lon="-93.6773950">
        <ele>306.3200000</ele>
        <time>2009-04-19T15:33:13Z</time>
      </trkpt>
      <trkpt lat="45.0591200" lon="-93.6766800">
        <ele>305.8400000</ele>
        <time>2009-04-19T15:33:19Z</time>
      </trkpt>
      <trkpt lat="45.0589960" lon="-93.6766310">
        <ele>305.8400000</ele>
        <time>2009-04-19T15:33:20Z</time>
      </trkpt>
      <trkpt lat="45.0588470" lon="-93.6766020">
        <ele>304.8800000</ele>
        <time>2009-04-19T15:33:21Z</time>
      </trkpt>
      <trkpt lat="45.0586720" lon="-93.6766030">
        <ele>304.3900000</ele>
        <time>2009-04-19T15:33:22Z</time>
      </trkpt>
      <trkpt lat="45.0584960" lon="-93.6766040">
        <ele>303.9100000</ele>
        <time>2009-04-19T15:33:23Z</time>
      </trkpt>
      <trkpt lat="45.0566830" lon="-93.6766140">
        <ele>299.5900000</ele>
        <time>2009-04-19T15:33:35Z</time>
      </trkpt>
      <trkpt lat="45.0548470" lon="-93.6766240">
        <ele>302.9500000</ele>
        <time>2009-04-19T15:33:47Z</time>
      </trkpt>
      <trkpt lat="45.0526650" lon="-93.6766360">
        <ele>301.0300000</ele>
        <time>2009-04-19T15:34:03Z</time>
      </trkpt>
      <trkpt lat="45.0514290" lon="-93.6766430">
        <ele>301.5100000</ele>
        <time>2009-04-19T15:34:14Z</time>
      </trkpt>
      <trkpt lat="45.0511910" lon="-93.6766440">
        <ele>302.9500000</ele>
        <time>2009-04-19T15:34:23Z</time>
      </trkpt>
      <trkpt lat="45.0510490" lon="-93.6766440">
        <ele>303.4300000</ele>
        <time>2009-04-19T15:34:28Z</time>
      </trkpt>
      <trkpt lat="45.0510720" lon="-93.6767940">
        <ele>303.4300000</ele>
        <time>2009-04-19T15:34:29Z</time>
      </trkpt>
      <trkpt lat="45.0510740" lon="-93.6769030">
        <ele>303.4300000</ele>
        <time>2009-04-19T15:34:30Z</time>
      </trkpt>
      <trkpt lat="45.0510920" lon="-93.6779600">
        <ele>305.3600000</ele>
        <time>2009-04-19T15:34:36Z</time>
      </trkpt>
      <trkpt lat="45.0511540" lon="-93.6816530">
        <ele>303.9100000</ele>
        <time>2009-04-19T15:34:52Z</time>
      </trkpt>
      <trkpt lat="45.0512120" lon="-93.6851220">
        <ele>308.7200000</ele>
        <time>2009-04-19T15:35:05Z</time>
      </trkpt>
      <trkpt lat="45.0511540" lon="-93.6892870">
        <ele>317.3700000</ele>
        <time>2009-04-19T15:35:20Z</time>
      </trkpt>
      <trkpt lat="45.0510100" lon="-93.6932140">
        <ele>314.9700000</ele>
        <time>2009-04-19T15:35:35Z</time>
      </trkpt>
      <trkpt lat="45.0508610" lon="-93.6972920">
        <ele>307.2800000</ele>
        <time>2009-04-19T15:35:50Z</time>
      </trkpt>
      <trkpt lat="45.0506840" lon="-93.7021360">
        <ele>310.1600000</ele>
        <time>2009-04-19T15:36:07Z</time>
      </trkpt>
      <trkpt lat="45.0505220" lon="-93.7071480">
        <ele>310.6400000</ele>
        <time>2009-04-19T15:36:25Z</time>
      </trkpt>
      <trkpt lat="45.0504920" lon="-93.7120980">
        <ele>315.9300000</ele>
        <time>2009-04-19T15:36:43Z</time>
      </trkpt>
      <trkpt lat="45.0504770" lon="-93.7155340">
        <ele>320.7400000</ele>
        <time>2009-04-19T15:36:58Z</time>
      </trkpt>
      <trkpt lat="45.0504710" lon="-93.7169250">
        <ele>323.1400000</ele>
        <time>2009-04-19T15:37:07Z</time>
      </trkpt>
      <trkpt lat="45.0504700" lon="-93.7172080">
        <ele>323.6200000</ele>
        <time>2009-04-19T15:37:14Z</time>
      </trkpt>
      <trkpt lat="45.0504690" lon="-93.7173520">
        <ele>324.1000000</ele>
        <time>2009-04-19T15:37:22Z</time>
      </trkpt>
      <trkpt lat="45.0504680" lon="-93.7174290">
        <ele>324.1000000</ele>
        <time>2009-04-19T15:37:23Z</time>
      </trkpt>
      <trkpt lat="45.0504680" lon="-93.7174980">
        <ele>324.5800000</ele>
        <time>2009-04-19T15:37:24Z</time>
      </trkpt>
      <trkpt lat="45.0503210" lon="-93.7173720">
        <ele>324.1000000</ele>
        <time>2009-04-19T15:37:25Z</time>
      </trkpt>
      <trkpt lat="45.0502060" lon="-93.7173720">
        <ele>324.5800000</ele>
        <time>2009-04-19T15:37:26Z</time>
      </trkpt>
      <trkpt lat="45.0500710" lon="-93.7173730">
        <ele>324.5800000</ele>
        <time>2009-04-19T15:37:27Z</time>
      </trkpt>
      <trkpt lat="45.0485820" lon="-93.7173780">
        <ele>324.1000000</ele>
        <time>2009-04-19T15:37:36Z</time>
      </trkpt>
      <trkpt lat="45.0453990" lon="-93.7173890">
        <ele>317.3700000</ele>
        <time>2009-04-19T15:37:52Z</time>
      </trkpt>
      <trkpt lat="45.0413060" lon="-93.7174030">
        <ele>310.6400000</ele>
        <time>2009-04-19T15:38:12Z</time>
      </trkpt>
      <trkpt lat="45.0378270" lon="-93.7174140">
        <ele>300.5500000</ele>
        <time>2009-04-19T15:38:30Z</time>
      </trkpt>
      <trkpt lat="45.0360100" lon="-93.7174140">
        <ele>300.0700000</ele>
        <time>2009-04-19T15:38:41Z</time>
      </trkpt>
      <trkpt lat="45.0352990" lon="-93.7172860">
        <ele>299.1100000</ele>
        <time>2009-04-19T15:38:46Z</time>
      </trkpt>
      <trkpt lat="45.0351410" lon="-93.7172050">
        <ele>298.6300000</ele>
        <time>2009-04-19T15:38:47Z</time>
      </trkpt>
      <trkpt lat="45.0349620" lon="-93.7170710">
        <ele>298.1500000</ele>
        <time>2009-04-19T15:38:48Z</time>
      </trkpt>
      <trkpt lat="45.0347710" lon="-93.7169270">
        <ele>298.1500000</ele>
        <time>2009-04-19T15:38:49Z</time>
      </trkpt>
      <trkpt lat="45.0345720" lon="-93.7167780">
        <ele>297.6700000</ele>
        <time>2009-04-19T15:38:50Z</time>
      </trkpt>
      <trkpt lat="45.0327300" lon="-93.7153050">
        <ele>298.6300000</ele>
        <time>2009-04-19T15:39:00Z</time>
      </trkpt>
      <trkpt lat="45.0325330" lon="-93.7152260">
        <ele>298.1500000</ele>
        <time>2009-04-19T15:39:01Z</time>
      </trkpt>
      <trkpt lat="45.0323250" lon="-93.7152430">
        <ele>297.6700000</ele>
        <time>2009-04-19T15:39:02Z</time>
      </trkpt>
      <trkpt lat="45.0320980" lon="-93.7152610">
        <ele>297.6700000</ele>
        <time>2009-04-19T15:39:03Z</time>
      </trkpt>
      <trkpt lat="45.0318690" lon="-93.7152960">
        <ele>297.1800000</ele>
        <time>2009-04-19T15:39:04Z</time>
      </trkpt>
      <trkpt lat="45.0316350" lon="-93.7153410">
        <ele>297.1800000</ele>
        <time>2009-04-19T15:39:05Z</time>
      </trkpt>
      <trkpt lat="45.0301610" lon="-93.7152740">
        <ele>298.6300000</ele>
        <time>2009-04-19T15:39:12Z</time>
      </trkpt>
      <trkpt lat="45.0295640" lon="-93.7151240">
        <ele>300.5500000</ele>
        <time>2009-04-19T15:39:16Z</time>
      </trkpt>
      <trkpt lat="45.0294730" lon="-93.7151040">
        <ele>301.0300000</ele>
        <time>2009-04-19T15:39:17Z</time>
      </trkpt>
      <trkpt lat="45.0294400" lon="-93.7150970">
        <ele>301.5100000</ele>
        <time>2009-04-19T15:39:18Z</time>
      </trkpt>
      <trkpt lat="45.0293120" lon="-93.7154600">
        <ele>301.9900000</ele>
        <time>2009-04-19T15:39:19Z</time>
      </trkpt>
      <trkpt lat="45.0292320" lon="-93.7156840">
        <ele>301.9900000</ele>
        <time>2009-04-19T15:39:20Z</time>
      </trkpt>
      <trkpt lat="45.0291470" lon="-93.7159230">
        <ele>301.9900000</ele>
        <time>2009-04-19T15:39:21Z</time>
      </trkpt>
      <trkpt lat="45.0286360" lon="-93.7172770">
        <ele>301.0300000</ele>
        <time>2009-04-19T15:39:28Z</time>
      </trkpt>
      <trkpt lat="45.0280900" lon="-93.7184530">
        <ele>300.0700000</ele>
        <time>2009-04-19T15:39:39Z</time>
      </trkpt>
      <trkpt lat="45.0279640" lon="-93.7187190">
        <ele>299.5900000</ele>
        <time>2009-04-19T15:39:46Z</time>
      </trkpt>
      <trkpt lat="45.0277900" lon="-93.7190780">
        <ele>299.1100000</ele>
        <time>2009-04-19T15:39:59Z</time>
      </trkpt>
      <trkpt lat="45.0277010" lon="-93.7192270">
        <ele>299.1100000</ele>
        <time>2009-04-19T15:40:07Z</time>
      </trkpt>
      <trkpt lat="45.0276170" lon="-93.7194730">
        <ele>298.6300000</ele>
        <time>2009-04-19T15:40:11Z</time>
      </trkpt>
      <trkpt lat="45.0276390" lon="-93.7195580">
        <ele>298.6300000</ele>
        <time>2009-04-19T15:40:12Z</time>
      </trkpt>
      <trkpt lat="45.0276670" lon="-93.7196640">
        <ele>298.6300000</ele>
        <time>2009-04-19T15:40:13Z</time>
      </trkpt>
      <trkpt lat="45.0277030" lon="-93.7198000">
        <ele>298.6300000</ele>
        <time>2009-04-19T15:40:14Z</time>
      </trkpt>
      <trkpt lat="45.0277470" lon="-93.7199690">
        <ele>298.6300000</ele>
        <time>2009-04-19T15:40:15Z</time>
      </trkpt>
      <trkpt lat="45.0281370" lon="-93.7214630">
        <ele>298.6300000</ele>
        <time>2009-04-19T15:40:21Z</time>
      </trkpt>
      <trkpt lat="45.0291810" lon="-93.7249340">
        <ele>297.6700000</ele>
        <time>2009-04-19T15:40:33Z</time>
      </trkpt>
      <trkpt lat="45.0298420" lon="-93.7264520">
        <ele>297.6700000</ele>
        <time>2009-04-19T15:40:40Z</time>
      </trkpt>
      <trkpt lat="45.0299950" lon="-93.7268020">
        <ele>298.1500000</ele>
        <time>2009-04-19T15:40:45Z</time>
      </trkpt>
      <trkpt lat="45.0302250" lon="-93.7273290">
        <ele>298.1500000</ele>
        <time>2009-04-19T15:40:56Z</time>
      </trkpt>
      <trkpt lat="45.0302480" lon="-93.7273840">
        <ele>298.1500000</ele>
        <time>2009-04-19T15:40:57Z</time>
      </trkpt>
      <trkpt lat="45.0301690" lon="-93.7274900">
        <ele>298.1500000</ele>
        <time>2009-04-19T15:40:58Z</time>
      </trkpt>
      <trkpt lat="45.0300940" lon="-93.7274850">
        <ele>298.1500000</ele>
        <time>2009-04-19T15:40:59Z</time>
      </trkpt>
      <trkpt lat="45.0299910" lon="-93.7274790">
        <ele>298.1500000</ele>
        <time>2009-04-19T15:41:00Z</time>
      </trkpt>
      <trkpt lat="45.0298610" lon="-93.7274700">
        <ele>298.1500000</ele>
        <time>2009-04-19T15:41:01Z</time>
      </trkpt>
      <trkpt lat="45.0283600" lon="-93.7273710">
        <ele>300.0700000</ele>
        <time>2009-04-19T15:41:11Z</time>
      </trkpt>
      <trkpt lat="45.0262820" lon="-93.7274110">
        <ele>299.5900000</ele>
        <time>2009-04-19T15:41:23Z</time>
      </trkpt>
      <trkpt lat="45.0239190" lon="-93.7273980">
        <ele>298.6300000</ele>
        <time>2009-04-19T15:41:35Z</time>
      </trkpt>
      <trkpt lat="45.0207560" lon="-93.7273770">
        <ele>291.9000000</ele>
        <time>2009-04-19T15:41:52Z</time>
      </trkpt>
      <trkpt lat="45.0173030" lon="-93.7273540">
        <ele>292.3800000</ele>
        <time>2009-04-19T15:42:10Z</time>
      </trkpt>
      <trkpt lat="45.0146230" lon="-93.7273360">
        <ele>300.0700000</ele>
        <time>2009-04-19T15:42:24Z</time>
      </trkpt>
      <trkpt lat="45.0122950" lon="-93.7273200">
        <ele>300.0700000</ele>
        <time>2009-04-19T15:42:37Z</time>
      </trkpt>
      <trkpt lat="45.0089390" lon="-93.7272980">
        <ele>298.1500000</ele>
        <time>2009-04-19T15:42:56Z</time>
      </trkpt>
      <trkpt lat="45.0060440" lon="-93.7272790">
        <ele>292.8600000</ele>
        <time>2009-04-19T15:43:12Z</time>
      </trkpt>
      <trkpt lat="45.0035090" lon="-93.7272640">
        <ele>291.4200000</ele>
        <time>2009-04-19T15:43:26Z</time>
      </trkpt>
      <trkpt lat="45.0008920" lon="-93.7272490">
        <ele>292.3800000</ele>
        <time>2009-04-19T15:43:41Z</time>
      </trkpt>
      <trkpt lat="44.9979300" lon="-93.7272310">
        <ele>299.1100000</ele>
        <time>2009-04-19T15:43:58Z</time>
      </trkpt>
      <trkpt lat="44.9950460" lon="-93.7272150">
        <ele>299.1100000</ele>
        <time>2009-04-19T15:44:14Z</time>
      </trkpt>
      <trkpt lat="44.9923470" lon="-93.7271990">
        <ele>296.2200000</ele>
        <time>2009-04-19T15:44:30Z</time>
      </trkpt>
      <trkpt lat="44.9901310" lon="-93.7271310">
        <ele>306.3200000</ele>
        <time>2009-04-19T15:44:44Z</time>
      </trkpt>
      <trkpt lat="44.9897230" lon="-93.7271180">
        <ele>307.7600000</ele>
        <time>2009-04-19T15:44:50Z</time>
      </trkpt>
      <trkpt lat="44.9895670" lon="-93.7272170">
        <ele>309.2000000</ele>
        <time>2009-04-19T15:44:56Z</time>
      </trkpt>
      <trkpt lat="44.9895630" lon="-93.7273100">
        <ele>309.2000000</ele>
        <time>2009-04-19T15:44:57Z</time>
      </trkpt>
      <trkpt lat="44.9895570" lon="-93.7274340">
        <ele>308.2400000</ele>
        <time>2009-04-19T15:44:58Z</time>
      </trkpt>
      <trkpt lat="44.9895510" lon="-93.7275720">
        <ele>308.2400000</ele>
        <time>2009-04-19T15:44:59Z</time>
      </trkpt>
      <trkpt lat="44.9895450" lon="-93.7277080">
        <ele>308.7200000</ele>
        <time>2009-04-19T15:45:00Z</time>
      </trkpt>
      <trkpt lat="44.9893810" lon="-93.7287740">
        <ele>308.7200000</ele>
        <time>2009-04-19T15:45:05Z</time>
      </trkpt>
      <trkpt lat="44.9888610" lon="-93.7303210">
        <ele>308.7200000</ele>
        <time>2009-04-19T15:45:11Z</time>
      </trkpt>
      <trkpt lat="44.9870670" lon="-93.7346140">
        <ele>305.8400000</ele>
        <time>2009-04-19T15:45:28Z</time>
      </trkpt>
      <trkpt lat="44.9866500" lon="-93.7371070">
        <ele>307.2800000</ele>
        <time>2009-04-19T15:45:37Z</time>
      </trkpt>
      <trkpt lat="44.9866110" lon="-93.7399580">
        <ele>306.8000000</ele>
        <time>2009-04-19T15:45:47Z</time>
      </trkpt>
      <trkpt lat="44.9866110" lon="-93.7450170">
        <ele>301.9900000</ele>
        <time>2009-04-19T15:46:06Z</time>
      </trkpt>
      <trkpt lat="44.9865790" lon="-93.7492850">
        <ele>297.6700000</ele>
        <time>2009-04-19T15:46:21Z</time>
      </trkpt>
      <trkpt lat="44.9862130" lon="-93.7519510">
        <ele>294.7800000</ele>
        <time>2009-04-19T15:46:31Z</time>
      </trkpt>
      <trkpt lat="44.9853860" lon="-93.7541270">
        <ele>294.3000000</ele>
        <time>2009-04-19T15:46:40Z</time>
      </trkpt>
      <trkpt lat="44.9834130" lon="-93.7576640">
        <ele>307.2800000</ele>
        <time>2009-04-19T15:46:57Z</time>
      </trkpt>
      <trkpt lat="44.9809870" lon="-93.7617870">
        <ele>301.0300000</ele>
        <time>2009-04-19T15:47:16Z</time>
      </trkpt>
      <trkpt lat="44.9788090" lon="-93.7654900">
        <ele>293.3400000</ele>
        <time>2009-04-19T15:47:32Z</time>
      </trkpt>
      <trkpt lat="44.9773550" lon="-93.7672440">
        <ele>292.8600000</ele>
        <time>2009-04-19T15:47:42Z</time>
      </trkpt>
      <trkpt lat="44.9759460" lon="-93.7687090">
        <ele>288.0500000</ele>
        <time>2009-04-19T15:47:52Z</time>
      </trkpt>
      <trkpt lat="44.9756070" lon="-93.7692610">
        <ele>288.0500000</ele>
        <time>2009-04-19T15:47:57Z</time>
      </trkpt>
      <trkpt lat="44.9754750" lon="-93.7694770">
        <ele>288.0500000</ele>
        <time>2009-04-19T15:48:00Z</time>
      </trkpt>
      <trkpt lat="44.9754370" lon="-93.7695410">
        <ele>288.0500000</ele>
        <time>2009-04-19T15:48:01Z</time>
      </trkpt>
      <trkpt lat="44.9753520" lon="-93.7693930">
        <ele>288.0500000</ele>
        <time>2009-04-19T15:48:02Z</time>
      </trkpt>
      <trkpt lat="44.9752660" lon="-93.7692920">
        <ele>288.0500000</ele>
        <time>2009-04-19T15:48:03Z</time>
      </trkpt>
      <trkpt lat="44.9751680" lon="-93.7691740">
        <ele>288.0500000</ele>
        <time>2009-04-19T15:48:04Z</time>
      </trkpt>
      <trkpt lat="44.9750680" lon="-93.7690570">
        <ele>287.5700000</ele>
        <time>2009-04-19T15:48:05Z</time>
      </trkpt>
      <trkpt lat="44.9743500" lon="-93.7681030">
        <ele>288.5300000</ele>
        <time>2009-04-19T15:48:14Z</time>
      </trkpt>
      <trkpt lat="44.9741760" lon="-93.7678540">
        <ele>289.0100000</ele>
        <time>2009-04-19T15:48:16Z</time>
      </trkpt>
      <trkpt lat="44.9741200" lon="-93.7677040">
        <ele>289.0100000</ele>
        <time>2009-04-19T15:48:17Z</time>
      </trkpt>
      <trkpt lat="44.9740800" lon="-93.7675820">
        <ele>289.4900000</ele>
        <time>2009-04-19T15:48:18Z</time>
      </trkpt>
      <trkpt lat="44.9740630" lon="-93.7673740">
        <ele>289.4900000</ele>
        <time>2009-04-19T15:48:19Z</time>
      </trkpt>
      <trkpt lat="44.9740490" lon="-93.7671980">
        <ele>289.9700000</ele>
        <time>2009-04-19T15:48:20Z</time>
      </trkpt>
      <trkpt lat="44.9740350" lon="-93.7670200">
        <ele>290.4600000</ele>
        <time>2009-04-19T15:48:21Z</time>
      </trkpt>
      <trkpt lat="44.9737910" lon="-93.7650480">
        <ele>287.5700000</ele>
        <time>2009-04-19T15:48:31Z</time>
      </trkpt>
      <trkpt lat="44.9736160" lon="-93.7642170">
        <ele>287.0900000</ele>
        <time>2009-04-19T15:48:35Z</time>
      </trkpt>
      <trkpt lat="44.9735480" lon="-93.7640140">
        <ele>287.0900000</ele>
        <time>2009-04-19T15:48:36Z</time>
      </trkpt>
      <trkpt lat="44.9734480" lon="-93.7638310">
        <ele>287.0900000</ele>
        <time>2009-04-19T15:48:37Z</time>
      </trkpt>
      <trkpt lat="44.9733320" lon="-93.7636690">
        <ele>287.5700000</ele>
        <time>2009-04-19T15:48:38Z</time>
      </trkpt>
      <trkpt lat="44.9732100" lon="-93.7635210">
        <ele>288.0500000</ele>
        <time>2009-04-19T15:48:39Z</time>
      </trkpt>
      <trkpt lat="44.9730840" lon="-93.7633760">
        <ele>289.0100000</ele>
        <time>2009-04-19T15:48:40Z</time>
      </trkpt>
      <trkpt lat="44.9725940" lon="-93.7628080">
        <ele>290.9400000</ele>
        <time>2009-04-19T15:48:44Z</time>
      </trkpt>
      <trkpt lat="44.9724710" lon="-93.7626820">
        <ele>290.9400000</ele>
        <time>2009-04-19T15:48:45Z</time>
      </trkpt>
      <trkpt lat="44.9723260" lon="-93.7626270">
        <ele>290.9400000</ele>
        <time>2009-04-19T15:48:46Z</time>
      </trkpt>
      <trkpt lat="44.9721790" lon="-93.7625720">
        <ele>291.4200000</ele>
        <time>2009-04-19T15:48:47Z</time>
      </trkpt>
      <trkpt lat="44.9720210" lon="-93.7625610">
        <ele>291.4200000</ele>
        <time>2009-04-19T15:48:48Z</time>
      </trkpt>
      <trkpt lat="44.9718660" lon="-93.7625610">
        <ele>291.4200000</ele>
        <time>2009-04-19T15:48:49Z</time>
      </trkpt>
      <trkpt lat="44.9705280" lon="-93.7625230">
        <ele>291.9000000</ele>
        <time>2009-04-19T15:48:59Z</time>
      </trkpt>
      <trkpt lat="44.9704090" lon="-93.7624520">
        <ele>292.3800000</ele>
        <time>2009-04-19T15:49:00Z</time>
      </trkpt>
      <trkpt lat="44.9702800" lon="-93.7623230">
        <ele>292.8600000</ele>
        <time>2009-04-19T15:49:01Z</time>
      </trkpt>
      <trkpt lat="44.9701590" lon="-93.7621640">
        <ele>293.3400000</ele>
        <time>2009-04-19T15:49:02Z</time>
      </trkpt>
      <trkpt lat="44.9700920" lon="-93.7619310">
        <ele>293.3400000</ele>
        <time>2009-04-19T15:49:03Z</time>
      </trkpt>
      <trkpt lat="44.9700690" lon="-93.7616610">
        <ele>293.3400000</ele>
        <time>2009-04-19T15:49:04Z</time>
      </trkpt>
      <trkpt lat="44.9700470" lon="-93.7613790">
        <ele>294.3000000</ele>
        <time>2009-04-19T15:49:05Z</time>
      </trkpt>
      <trkpt lat="44.9700260" lon="-93.7611070">
        <ele>294.7800000</ele>
        <time>2009-04-19T15:49:06Z</time>
      </trkpt>
      <trkpt lat="44.9700060" lon="-93.7608500">
        <ele>295.7400000</ele>
        <time>2009-04-19T15:49:07Z</time>
      </trkpt>
      <trkpt lat="44.9697790" lon="-93.7585560">
        <ele>296.7000000</ele>
        <time>2009-04-19T15:49:17Z</time>
      </trkpt>
      <trkpt lat="44.9691890" lon="-93.7563460">
        <ele>298.1500000</ele>
        <time>2009-04-19T15:49:26Z</time>
      </trkpt>
      <trkpt lat="44.9687940" lon="-93.7542850">
        <ele>296.2200000</ele>
        <time>2009-04-19T15:49:35Z</time>
      </trkpt>
      <trkpt lat="44.9682520" lon="-93.7502810">
        <ele>299.5900000</ele>
        <time>2009-04-19T15:49:51Z</time>
      </trkpt>
      <trkpt lat="44.9678630" lon="-93.7476130">
        <ele>301.0300000</ele>
        <time>2009-04-19T15:50:03Z</time>
      </trkpt>
      <trkpt lat="44.9677370" lon="-93.7469750">
        <ele>300.5500000</ele>
        <time>2009-04-19T15:50:11Z</time>
      </trkpt>
      <trkpt lat="44.9674710" lon="-93.7464250">
        <ele>295.7400000</ele>
        <time>2009-04-19T15:50:26Z</time>
      </trkpt>
      <trkpt lat="44.9674390" lon="-93.7463620">
        <ele>295.7400000</ele>
        <time>2009-04-19T15:50:27Z</time>
      </trkpt>
      <trkpt lat="44.9674760" lon="-93.7462300">
        <ele>295.7400000</ele>
        <time>2009-04-19T15:50:28Z</time>
      </trkpt>
      <trkpt lat="44.9675210" lon="-93.7461300">
        <ele>295.7400000</ele>
        <time>2009-04-19T15:50:29Z</time>
      </trkpt>
      <trkpt lat="44.9675780" lon="-93.7460010">
        <ele>295.7400000</ele>
        <time>2009-04-19T15:50:30Z</time>
      </trkpt>
      <trkpt lat="44.9676870" lon="-93.7456260">
        <ele>295.2600000</ele>
        <time>2009-04-19T15:50:32Z</time>
      </trkpt>
      <trkpt lat="44.9677430" lon="-93.7454130">
        <ele>295.2600000</ele>
        <time>2009-04-19T15:50:33Z</time>
      </trkpt>
      <trkpt lat="44.9683870" lon="-93.7429160">
        <ele>299.1100000</ele>
        <time>2009-04-19T15:50:44Z</time>
      </trkpt>
      <trkpt lat="44.9689840" lon="-93.7405930">
        <ele>300.0700000</ele>
        <time>2009-04-19T15:50:54Z</time>
      </trkpt>
      <trkpt lat="44.9690780" lon="-93.7382920">
        <ele>301.9900000</ele>
        <time>2009-04-19T15:51:03Z</time>
      </trkpt>
      <trkpt lat="44.9688870" lon="-93.7348400">
        <ele>302.4700000</ele>
        <time>2009-04-19T15:51:16Z</time>
      </trkpt>
      <trkpt lat="44.9689220" lon="-93.7345790">
        <ele>301.9900000</ele>
        <time>2009-04-19T15:51:17Z</time>
      </trkpt>
      <trkpt lat="44.9689710" lon="-93.7343290">
        <ele>301.5100000</ele>
        <time>2009-04-19T15:51:18Z</time>
      </trkpt>
      <trkpt lat="44.9690620" lon="-93.7341000">
        <ele>300.5500000</ele>
        <time>2009-04-19T15:51:19Z</time>
      </trkpt>
      <trkpt lat="44.9691530" lon="-93.7338790">
        <ele>300.0700000</ele>
        <time>2009-04-19T15:51:20Z</time>
      </trkpt>
      <trkpt lat="44.9692680" lon="-93.7336900">
        <ele>299.1100000</ele>
        <time>2009-04-19T15:51:21Z</time>
      </trkpt>
      <trkpt lat="44.9693770" lon="-93.7335090">
        <ele>298.6300000</ele>
        <time>2009-04-19T15:51:22Z</time>
      </trkpt>
      <trkpt lat="44.9699320" lon="-93.7325930">
        <ele>295.2600000</ele>
        <time>2009-04-19T15:51:29Z</time>
      </trkpt>
      <trkpt lat="44.9699770" lon="-93.7325200">
        <ele>294.3000000</ele>
        <time>2009-04-19T15:51:30Z</time>
      </trkpt>
      <trkpt lat="44.9699020" lon="-93.7323310">
        <ele>294.3000000</ele>
        <time>2009-04-19T15:51:31Z</time>
      </trkpt>
      <trkpt lat="44.9698270" lon="-93.7322210">
        <ele>293.8200000</ele>
        <time>2009-04-19T15:51:32Z</time>
      </trkpt>
      <trkpt lat="44.9697330" lon="-93.7320850">
        <ele>293.8200000</ele>
        <time>2009-04-19T15:51:33Z</time>
      </trkpt>
      <trkpt lat="44.9691650" lon="-93.7310860">
        <ele>293.8200000</ele>
        <time>2009-04-19T15:51:39Z</time>
      </trkpt>
      <trkpt lat="44.9689630" lon="-93.7306960">
        <ele>293.3400000</ele>
        <time>2009-04-19T15:51:42Z</time>
      </trkpt>
      <trkpt lat="44.9688620" lon="-93.7305810">
        <ele>293.3400000</ele>
        <time>2009-04-19T15:51:43Z</time>
      </trkpt>
      <trkpt lat="44.9687210" lon="-93.7305010">
        <ele>293.3400000</ele>
        <time>2009-04-19T15:51:44Z</time>
      </trkpt>
      <trkpt lat="44.9685710" lon="-93.7304900">
        <ele>293.8200000</ele>
        <time>2009-04-19T15:51:45Z</time>
      </trkpt>
      <trkpt lat="44.9684190" lon="-93.7304790">
        <ele>294.3000000</ele>
        <time>2009-04-19T15:51:46Z</time>
      </trkpt>
      <trkpt lat="44.9681410" lon="-93.7304440">
        <ele>295.2600000</ele>
        <time>2009-04-19T15:51:48Z</time>
      </trkpt>
      <trkpt lat="44.9680580" lon="-93.7303210">
        <ele>295.2600000</ele>
        <time>2009-04-19T15:51:49Z</time>
      </trkpt>
      <trkpt lat="44.9680310" lon="-93.7301790">
        <ele>295.2600000</ele>
        <time>2009-04-19T15:51:50Z</time>
      </trkpt>
      <trkpt lat="44.9680450" lon="-93.7300340">
        <ele>294.7800000</ele>
        <time>2009-04-19T15:51:51Z</time>
      </trkpt>
      <trkpt lat="44.9680590" lon="-93.7298860">
        <ele>294.3000000</ele>
        <time>2009-04-19T15:51:52Z</time>
      </trkpt>
      <trkpt lat="44.9680750" lon="-93.7297180">
        <ele>293.8200000</ele>
        <time>2009-04-19T15:51:53Z</time>
      </trkpt>
      <trkpt lat="44.9682400" lon="-93.7280030">
        <ele>291.9000000</ele>
        <time>2009-04-19T15:52:01Z</time>
      </trkpt>
      <trkpt lat="44.9680220" lon="-93.7257320">
        <ele>294.3000000</ele>
        <time>2009-04-19T15:52:11Z</time>
      </trkpt>
      <trkpt lat="44.9675670" lon="-93.7239660">
        <ele>290.9400000</ele>
        <time>2009-04-19T15:52:19Z</time>
      </trkpt>
      <trkpt lat="44.9675220" lon="-93.7237260">
        <ele>289.9700000</ele>
        <time>2009-04-19T15:52:20Z</time>
      </trkpt>
      <trkpt lat="44.9675130" lon="-93.7234700">
        <ele>289.0100000</ele>
        <time>2009-04-19T15:52:21Z</time>
      </trkpt>
      <trkpt lat="44.9675010" lon="-93.7204370">
        <ele>290.4600000</ele>
        <time>2009-04-19T15:52:33Z</time>
      </trkpt>
      <trkpt lat="44.9674880" lon="-93.7168970">
        <ele>292.3800000</ele>
        <time>2009-04-19T15:52:47Z</time>
      </trkpt>
      <trkpt lat="44.9674750" lon="-93.7135040">
        <ele>304.3900000</ele>
        <time>2009-04-19T15:53:01Z</time>
      </trkpt>
      <trkpt lat="44.9673510" lon="-93.7108120">
        <ele>306.3200000</ele>
        <time>2009-04-19T15:53:12Z</time>
      </trkpt>
      <trkpt lat="44.9673780" lon="-93.7105660">
        <ele>305.3600000</ele>
        <time>2009-04-19T15:53:13Z</time>
      </trkpt>
      <trkpt lat="44.9674060" lon="-93.7103100">
        <ele>303.9100000</ele>
        <time>2009-04-19T15:53:14Z</time>
      </trkpt>
      <trkpt lat="44.9674360" lon="-93.7100460">
        <ele>302.9500000</ele>
        <time>2009-04-19T15:53:15Z</time>
      </trkpt>
      <trkpt lat="44.9674660" lon="-93.7097740">
        <ele>301.5100000</ele>
        <time>2009-04-19T15:53:16Z</time>
      </trkpt>
      <trkpt lat="44.9675250" lon="-93.7095130">
        <ele>300.5500000</ele>
        <time>2009-04-19T15:53:17Z</time>
      </trkpt>
      <trkpt lat="44.9681310" lon="-93.7077810">
        <ele>298.6300000</ele>
        <time>2009-04-19T15:53:24Z</time>
      </trkpt>
      <trkpt lat="44.9690990" lon="-93.7062220">
        <ele>295.7400000</ele>
        <time>2009-04-19T15:53:32Z</time>
      </trkpt>
      <trkpt lat="44.9708670" lon="-93.7038360">
        <ele>303.4300000</ele>
        <time>2009-04-19T15:53:46Z</time>
      </trkpt>
      <trkpt lat="44.9709910" lon="-93.7036320">
        <ele>303.9100000</ele>
        <time>2009-04-19T15:53:47Z</time>
      </trkpt>
      <trkpt lat="44.9711180" lon="-93.7034240">
        <ele>304.8800000</ele>
        <time>2009-04-19T15:53:48Z</time>
      </trkpt>
      <trkpt lat="44.9711890" lon="-93.7031640">
        <ele>305.3600000</ele>
        <time>2009-04-19T15:53:49Z</time>
      </trkpt>
      <trkpt lat="44.9712550" lon="-93.7028970">
        <ele>306.3200000</ele>
        <time>2009-04-19T15:53:50Z</time>
      </trkpt>
      <trkpt lat="44.9712930" lon="-93.7026130">
        <ele>307.7600000</ele>
        <time>2009-04-19T15:53:51Z</time>
      </trkpt>
      <trkpt lat="44.9713310" lon="-93.7023330">
        <ele>307.7600000</ele>
        <time>2009-04-19T15:53:52Z</time>
      </trkpt>
      <trkpt lat="44.9715960" lon="-93.7003970">
        <ele>309.2000000</ele>
        <time>2009-04-19T15:54:00Z</time>
      </trkpt>
      <trkpt lat="44.9721470" lon="-93.6988560">
        <ele>311.6000000</ele>
        <time>2009-04-19T15:54:07Z</time>
      </trkpt>
      <trkpt lat="44.9731600" lon="-93.6968750">
        <ele>315.4500000</ele>
        <time>2009-04-19T15:54:16Z</time>
      </trkpt>
      <trkpt lat="44.9739870" lon="-93.6945610">
        <ele>312.0900000</ele>
        <time>2009-04-19T15:54:26Z</time>
      </trkpt>
      <trkpt lat="44.9744730" lon="-93.6926550">
        <ele>304.8800000</ele>
        <time>2009-04-19T15:54:34Z</time>
      </trkpt>
      <trkpt lat="44.9750430" lon="-93.6892300">
        <ele>291.9000000</ele>
        <time>2009-04-19T15:54:48Z</time>
      </trkpt>
      <trkpt lat="44.9751100" lon="-93.6887250">
        <ele>291.4200000</ele>
        <time>2009-04-19T15:54:50Z</time>
      </trkpt>
      <trkpt lat="44.9751030" lon="-93.6884650">
        <ele>291.4200000</ele>
        <time>2009-04-19T15:54:51Z</time>
      </trkpt>
      <trkpt lat="44.9750790" lon="-93.6882000">
        <ele>290.9400000</ele>
        <time>2009-04-19T15:54:52Z</time>
      </trkpt>
      <trkpt lat="44.9748280" lon="-93.6855050">
        <ele>291.4200000</ele>
        <time>2009-04-19T15:55:03Z</time>
      </trkpt>
      <trkpt lat="44.9744200" lon="-93.6810620">
        <ele>295.2600000</ele>
        <time>2009-04-19T15:55:21Z</time>
      </trkpt>
      <trkpt lat="44.9743050" lon="-93.6779590">
        <ele>296.2200000</ele>
        <time>2009-04-19T15:55:33Z</time>
      </trkpt>
      <trkpt lat="44.9743180" lon="-93.6763340">
        <ele>296.7000000</ele>
        <time>2009-04-19T15:55:40Z</time>
      </trkpt>
      <trkpt lat="44.9748110" lon="-93.6754230">
        <ele>299.5900000</ele>
        <time>2009-04-19T15:55:49Z</time>
      </trkpt>
      <trkpt lat="44.9750630" lon="-93.6751030">
        <ele>301.5100000</ele>
        <time>2009-04-19T15:55:58Z</time>
      </trkpt>
      <trkpt lat="44.9749490" lon="-93.6744880">
        <ele>301.5100000</ele>
        <time>2009-04-19T15:56:02Z</time>
      </trkpt>
      <trkpt lat="44.9748940" lon="-93.6744700">
        <ele>301.5100000</ele>
        <time>2009-04-19T15:56:03Z</time>
      </trkpt>
      <trkpt lat="44.9748280" lon="-93.6744420">
        <ele>301.5100000</ele>
        <time>2009-04-19T15:56:04Z</time>
      </trkpt>
      <trkpt lat="44.9747390" lon="-93.6743950">
        <ele>301.5100000</ele>
        <time>2009-04-19T15:56:05Z</time>
      </trkpt>
      <trkpt lat="44.9746360" lon="-93.6743390">
        <ele>301.0300000</ele>
        <time>2009-04-19T15:56:06Z</time>
      </trkpt>
      <trkpt lat="44.9733920" lon="-93.6736670">
        <ele>303.9100000</ele>
        <time>2009-04-19T15:56:16Z</time>
      </trkpt>
      <trkpt lat="44.9722550" lon="-93.6733890">
        <ele>301.9900000</ele>
        <time>2009-04-19T15:56:24Z</time>
      </trkpt>
      <trkpt lat="44.9719470" lon="-93.6733160">
        <ele>301.5100000</ele>
        <time>2009-04-19T15:56:26Z</time>
      </trkpt>
      <trkpt lat="44.9717930" lon="-93.6732640">
        <ele>301.0300000</ele>
        <time>2009-04-19T15:56:27Z</time>
      </trkpt>
      <trkpt lat="44.9716560" lon="-93.6731660">
        <ele>301.0300000</ele>
        <time>2009-04-19T15:56:28Z</time>
      </trkpt>
      <trkpt lat="44.9715210" lon="-93.6730530">
        <ele>301.5100000</ele>
        <time>2009-04-19T15:56:29Z</time>
      </trkpt>
      <trkpt lat="44.9714030" lon="-93.6729130">
        <ele>301.9900000</ele>
        <time>2009-04-19T15:56:30Z</time>
      </trkpt>
      <trkpt lat="44.9712840" lon="-93.6727640">
        <ele>302.4700000</ele>
        <time>2009-04-19T15:56:31Z</time>
      </trkpt>
      <trkpt lat="44.9711650" lon="-93.6726150">
        <ele>303.4300000</ele>
        <time>2009-04-19T15:56:32Z</time>
      </trkpt>
      <trkpt lat="44.9710910" lon="-93.6724250">
        <ele>304.3900000</ele>
        <time>2009-04-19T15:56:33Z</time>
      </trkpt>
      <trkpt lat="44.9710140" lon="-93.6722240">
        <ele>305.3600000</ele>
        <time>2009-04-19T15:56:34Z</time>
      </trkpt>
      <trkpt lat="44.9709360" lon="-93.6720190">
        <ele>306.8000000</ele>
        <time>2009-04-19T15:56:35Z</time>
      </trkpt>
      <trkpt lat="44.9701640" lon="-93.6701220">
        <ele>314.9700000</ele>
        <time>2009-04-19T15:56:44Z</time>
      </trkpt>
      <trkpt lat="44.9700520" lon="-93.6699730">
        <ele>314.9700000</ele>
        <time>2009-04-19T15:56:45Z</time>
      </trkpt>
      <trkpt lat="44.9699420" lon="-93.6698260">
        <ele>314.9700000</ele>
        <time>2009-04-19T15:56:46Z</time>
      </trkpt>
      <trkpt lat="44.9698260" lon="-93.6696960">
        <ele>314.4900000</ele>
        <time>2009-04-19T15:56:47Z</time>
      </trkpt>
      <trkpt lat="44.9696920" lon="-93.6695900">
        <ele>314.4900000</ele>
        <time>2009-04-19T15:56:48Z</time>
      </trkpt>
      <trkpt lat="44.9695500" lon="-93.6695150">
        <ele>314.0100000</ele>
        <time>2009-04-19T15:56:49Z</time>
      </trkpt>
      <trkpt lat="44.9694000" lon="-93.6694480">
        <ele>314.0100000</ele>
        <time>2009-04-19T15:56:50Z</time>
      </trkpt>
      <trkpt lat="44.9692470" lon="-93.6693880">
        <ele>313.5300000</ele>
        <time>2009-04-19T15:56:51Z</time>
      </trkpt>
      <trkpt lat="44.9690830" lon="-93.6693680">
        <ele>313.5300000</ele>
        <time>2009-04-19T15:56:52Z</time>
      </trkpt>
      <trkpt lat="44.9689190" lon="-93.6693470">
        <ele>313.0500000</ele>
        <time>2009-04-19T15:56:53Z</time>
      </trkpt>
      <trkpt lat="44.9665980" lon="-93.6690520">
        <ele>301.0300000</ele>
        <time>2009-04-19T15:57:06Z</time>
      </trkpt>
      <trkpt lat="44.9664220" lon="-93.6689850">
        <ele>300.0700000</ele>
        <time>2009-04-19T15:57:07Z</time>
      </trkpt>
      <trkpt lat="44.9662470" lon="-93.6689010">
        <ele>299.1100000</ele>
        <time>2009-04-19T15:57:08Z</time>
      </trkpt>
      <trkpt lat="44.9660890" lon="-93.6687700">
        <ele>298.1500000</ele>
        <time>2009-04-19T15:57:09Z</time>
      </trkpt>
      <trkpt lat="44.9659460" lon="-93.6686130">
        <ele>297.1800000</ele>
        <time>2009-04-19T15:57:10Z</time>
      </trkpt>
      <trkpt lat="44.9658160" lon="-93.6684310">
        <ele>296.2200000</ele>
        <time>2009-04-19T15:57:11Z</time>
      </trkpt>
      <trkpt lat="44.9657050" lon="-93.6682290">
        <ele>295.2600000</ele>
        <time>2009-04-19T15:57:12Z</time>
      </trkpt>
      <trkpt lat="44.9655940" lon="-93.6680180">
        <ele>294.7800000</ele>
        <time>2009-04-19T15:57:13Z</time>
      </trkpt>
      <trkpt lat="44.9654850" lon="-93.6678090">
        <ele>293.8200000</ele>
        <time>2009-04-19T15:57:14Z</time>
      </trkpt>
      <trkpt lat="44.9648760" lon="-93.6666470">
        <ele>289.9700000</ele>
        <time>2009-04-19T15:57:21Z</time>
      </trkpt>
      <trkpt lat="44.9646100" lon="-93.6662850">
        <ele>290.4600000</ele>
        <time>2009-04-19T15:57:27Z</time>
      </trkpt>
      <trkpt lat="44.9645140" lon="-93.6662050">
        <ele>291.4200000</ele>
        <time>2009-04-19T15:57:34Z</time>
      </trkpt>
      <trkpt lat="44.9641690" lon="-93.6660280">
        <ele>292.8600000</ele>
        <time>2009-04-19T15:57:45Z</time>
      </trkpt>
      <trkpt lat="44.9640320" lon="-93.6659730">
        <ele>292.8600000</ele>
        <time>2009-04-19T15:57:50Z</time>
      </trkpt>
      <trkpt lat="44.9639910" lon="-93.6659580">
        <ele>292.8600000</ele>
        <time>2009-04-19T15:57:51Z</time>
      </trkpt>
      <trkpt lat="44.9640040" lon="-93.6658390">
        <ele>292.8600000</ele>
        <time>2009-04-19T15:57:52Z</time>
      </trkpt>
      <trkpt lat="44.9640130" lon="-93.6657240">
        <ele>292.8600000</ele>
        <time>2009-04-19T15:57:53Z</time>
      </trkpt>
      <trkpt lat="44.9640230" lon="-93.6655920">
        <ele>292.3800000</ele>
        <time>2009-04-19T15:57:54Z</time>
      </trkpt>
      <trkpt lat="44.9640350" lon="-93.6654380">
        <ele>291.9000000</ele>
        <time>2009-04-19T15:57:55Z</time>
      </trkpt>
      <trkpt lat="44.9640080" lon="-93.6637320">
        <ele>290.9400000</ele>
        <time>2009-04-19T15:58:03Z</time>
      </trkpt>
      <trkpt lat="44.9640370" lon="-93.6605540">
        <ele>301.5100000</ele>
        <time>2009-04-19T15:58:18Z</time>
      </trkpt>
      <trkpt lat="44.9640370" lon="-93.6581160">
        <ele>303.4300000</ele>
        <time>2009-04-19T15:58:30Z</time>
      </trkpt>
      <trkpt lat="44.9640440" lon="-93.6541410">
        <ele>301.0300000</ele>
        <time>2009-04-19T15:58:46Z</time>
      </trkpt>
      <trkpt lat="44.9640530" lon="-93.6519660">
        <ele>304.3900000</ele>
        <time>2009-04-19T15:58:56Z</time>
      </trkpt>
      <trkpt lat="44.9640670" lon="-93.6486100">
        <ele>288.5300000</ele>
        <time>2009-04-19T15:59:10Z</time>
      </trkpt>
      <trkpt lat="44.9640750" lon="-93.6468420">
        <ele>289.4900000</ele>
        <time>2009-04-19T15:59:19Z</time>
      </trkpt>
      <trkpt lat="44.9640790" lon="-93.6459360">
        <ele>289.4900000</ele>
        <time>2009-04-19T15:59:29Z</time>
      </trkpt>
      <trkpt lat="44.9640800" lon="-93.6456700">
        <ele>287.5700000</ele>
        <time>2009-04-19T15:59:37Z</time>
      </trkpt>
      <trkpt lat="44.9640750" lon="-93.6452860">
        <ele>286.6100000</ele>
        <time>2009-04-19T15:59:43Z</time>
      </trkpt>
      <trkpt lat="44.9640470" lon="-93.6440940">
        <ele>286.1300000</ele>
        <time>2009-04-19T15:59:49Z</time>
      </trkpt>
      <trkpt lat="44.9639680" lon="-93.6406980">
        <ele>289.9700000</ele>
        <time>2009-04-19T16:00:02Z</time>
      </trkpt>
      <trkpt lat="44.9638760" lon="-93.6367450">
        <ele>284.6900000</ele>
        <time>2009-04-19T16:00:19Z</time>
      </trkpt>
      <trkpt lat="44.9637680" lon="-93.6332400">
        <ele>293.3400000</ele>
        <time>2009-04-19T16:00:34Z</time>
      </trkpt>
      <trkpt lat="44.9632860" lon="-93.6318440">
        <ele>296.7000000</ele>
        <time>2009-04-19T16:00:41Z</time>
      </trkpt>
      <trkpt lat="44.9622840" lon="-93.6304880">
        <ele>297.6700000</ele>
        <time>2009-04-19T16:00:50Z</time>
      </trkpt>
      <trkpt lat="44.9605210" lon="-93.6285410">
        <ele>300.0700000</ele>
        <time>2009-04-19T16:01:05Z</time>
      </trkpt>
      <trkpt lat="44.9594440" lon="-93.6280100">
        <ele>303.9100000</ele>
        <time>2009-04-19T16:01:13Z</time>
      </trkpt>
      <trkpt lat="44.9574610" lon="-93.6277070">
        <ele>301.9900000</ele>
        <time>2009-04-19T16:01:27Z</time>
      </trkpt>
      <trkpt lat="44.9556950" lon="-93.6275140">
        <ele>302.9500000</ele>
        <time>2009-04-19T16:01:40Z</time>
      </trkpt>
      <trkpt lat="44.9555460" lon="-93.6275070">
        <ele>302.4700000</ele>
        <time>2009-04-19T16:01:41Z</time>
      </trkpt>
      <trkpt lat="44.9553600" lon="-93.6275960">
        <ele>301.5100000</ele>
        <time>2009-04-19T16:01:42Z</time>
      </trkpt>
      <trkpt lat="44.9552180" lon="-93.6277240">
        <ele>301.0300000</ele>
        <time>2009-04-19T16:01:43Z</time>
      </trkpt>
      <trkpt lat="44.9550810" lon="-93.6278470">
        <ele>300.0700000</ele>
        <time>2009-04-19T16:01:44Z</time>
      </trkpt>
      <trkpt lat="44.9548190" lon="-93.6280580">
        <ele>299.1100000</ele>
        <time>2009-04-19T16:01:46Z</time>
      </trkpt>
      <trkpt lat="44.9546810" lon="-93.6280970">
        <ele>298.1500000</ele>
        <time>2009-04-19T16:01:47Z</time>
      </trkpt>
      <trkpt lat="44.9545540" lon="-93.6280860">
        <ele>297.6700000</ele>
        <time>2009-04-19T16:01:48Z</time>
      </trkpt>
      <trkpt lat="44.9543840" lon="-93.6280430">
        <ele>298.1500000</ele>
        <time>2009-04-19T16:01:49Z</time>
      </trkpt>
      <trkpt lat="44.9542560" lon="-93.6279620">
        <ele>299.1100000</ele>
        <time>2009-04-19T16:01:50Z</time>
      </trkpt>
      <trkpt lat="44.9541560" lon="-93.6278110">
        <ele>299.1100000</ele>
        <time>2009-04-19T16:01:51Z</time>
      </trkpt>
      <trkpt lat="44.9540970" lon="-93.6276320">
        <ele>296.7000000</ele>
        <time>2009-04-19T16:01:52Z</time>
      </trkpt>
      <trkpt lat="44.9540540" lon="-93.6274240">
        <ele>295.7400000</ele>
        <time>2009-04-19T16:01:53Z</time>
      </trkpt>
      <trkpt lat="44.9540100" lon="-93.6272100">
        <ele>295.2600000</ele>
        <time>2009-04-19T16:01:54Z</time>
      </trkpt>
      <trkpt lat="44.9539690" lon="-93.6270090">
        <ele>294.3000000</ele>
        <time>2009-04-19T16:01:55Z</time>
      </trkpt>
      <trkpt lat="44.9537410" lon="-93.6260770">
        <ele>291.4200000</ele>
        <time>2009-04-19T16:02:00Z</time>
      </trkpt>
      <trkpt lat="44.9536760" lon="-93.6258980">
        <ele>291.4200000</ele>
        <time>2009-04-19T16:02:01Z</time>
      </trkpt>
      <trkpt lat="44.9535890" lon="-93.6257590">
        <ele>291.4200000</ele>
        <time>2009-04-19T16:02:02Z</time>
      </trkpt>
      <trkpt lat="44.9534780" lon="-93.6256300">
        <ele>291.4200000</ele>
        <time>2009-04-19T16:02:03Z</time>
      </trkpt>
      <trkpt lat="44.9533750" lon="-93.6255230">
        <ele>290.9400000</ele>
        <time>2009-04-19T16:02:04Z</time>
      </trkpt>
      <trkpt lat="44.9532500" lon="-93.6254600">
        <ele>290.9400000</ele>
        <time>2009-04-19T16:02:05Z</time>
      </trkpt>
      <trkpt lat="44.9531280" lon="-93.6253990">
        <ele>290.4600000</ele>
        <time>2009-04-19T16:02:06Z</time>
      </trkpt>
      <trkpt lat="44.9529900" lon="-93.6253300">
        <ele>291.4200000</ele>
        <time>2009-04-19T16:02:07Z</time>
      </trkpt>
      <trkpt lat="44.9528500" lon="-93.6253180">
        <ele>291.9000000</ele>
        <time>2009-04-19T16:02:08Z</time>
      </trkpt>
      <trkpt lat="44.9527080" lon="-93.6253140">
        <ele>292.3800000</ele>
        <time>2009-04-19T16:02:09Z</time>
      </trkpt>
      <trkpt lat="44.9510950" lon="-93.6251600">
        <ele>298.1500000</ele>
        <time>2009-04-19T16:02:21Z</time>
      </trkpt>
      <trkpt lat="44.9506740" lon="-93.6251190">
        <ele>298.6300000</ele>
        <time>2009-04-19T16:02:27Z</time>
      </trkpt>
      <trkpt lat="44.9504660" lon="-93.6250980">
        <ele>300.0700000</ele>
        <time>2009-04-19T16:02:38Z</time>
      </trkpt>
      <trkpt lat="44.9502060" lon="-93.6250720">
        <ele>299.1100000</ele>
        <time>2009-04-19T16:02:48Z</time>
      </trkpt>
      <trkpt lat="44.9498310" lon="-93.6250260">
        <ele>297.1800000</ele>
        <time>2009-04-19T16:02:55Z</time>
      </trkpt>
      <trkpt lat="44.9494890" lon="-93.6249800">
        <ele>295.2600000</ele>
        <time>2009-04-19T16:02:58Z</time>
      </trkpt>
      <trkpt lat="44.9494110" lon="-93.6249390">
        <ele>293.8200000</ele>
        <time>2009-04-19T16:02:59Z</time>
      </trkpt>
      <trkpt lat="44.9493210" lon="-93.6248490">
        <ele>292.3800000</ele>
        <time>2009-04-19T16:03:00Z</time>
      </trkpt>
      <trkpt lat="44.9493180" lon="-93.6248460">
        <ele>290.4600000</ele>
        <time>2009-04-19T16:03:01Z</time>
      </trkpt>
      <trkpt lat="44.9492300" lon="-93.6246470">
        <ele>288.5300000</ele>
        <time>2009-04-19T16:03:02Z</time>
      </trkpt>
      <trkpt lat="44.9492230" lon="-93.6244800">
        <ele>288.5300000</ele>
        <time>2009-04-19T16:03:03Z</time>
      </trkpt>
      <trkpt lat="44.9492150" lon="-93.6243080">
        <ele>288.0500000</ele>
        <time>2009-04-19T16:03:04Z</time>
      </trkpt>
      <trkpt lat="44.9492070" lon="-93.6241320">
        <ele>288.0500000</ele>
        <time>2009-04-19T16:03:05Z</time>
      </trkpt>
      <trkpt lat="44.9491890" lon="-93.6217490">
        <ele>286.6100000</ele>
        <time>2009-04-19T16:03:17Z</time>
      </trkpt>
      <trkpt lat="44.9491890" lon="-93.6188640">
        <ele>287.5700000</ele>
        <time>2009-04-19T16:03:32Z</time>
      </trkpt>
      <trkpt lat="44.9493570" lon="-93.6179380">
        <ele>287.0900000</ele>
        <time>2009-04-19T16:03:38Z</time>
      </trkpt>
      <trkpt lat="44.9494060" lon="-93.6177590">
        <ele>286.6100000</ele>
        <time>2009-04-19T16:03:39Z</time>
      </trkpt>
      <trkpt lat="44.9494860" lon="-93.6176000">
        <ele>287.0900000</ele>
        <time>2009-04-19T16:03:40Z</time>
      </trkpt>
      <trkpt lat="44.9495700" lon="-93.6174320">
        <ele>287.0900000</ele>
        <time>2009-04-19T16:03:41Z</time>
      </trkpt>
      <trkpt lat="44.9496760" lon="-93.6172800">
        <ele>287.5700000</ele>
        <time>2009-04-19T16:03:42Z</time>
      </trkpt>
      <trkpt lat="44.9497780" lon="-93.6171370">
        <ele>288.5300000</ele>
        <time>2009-04-19T16:03:43Z</time>
      </trkpt>
      <trkpt lat="44.9498810" lon="-93.6169920">
        <ele>289.4900000</ele>
        <time>2009-04-19T16:03:44Z</time>
      </trkpt>
      <trkpt lat="44.9509440" lon="-93.6151270">
        <ele>288.0500000</ele>
        <time>2009-04-19T16:03:56Z</time>
      </trkpt>
      <trkpt lat="44.9516880" lon="-93.6128410">
        <ele>286.6100000</ele>
        <time>2009-04-19T16:04:09Z</time>
      </trkpt>
      <trkpt lat="44.9524400" lon="-93.6103060">
        <ele>287.0900000</ele>
        <time>2009-04-19T16:04:22Z</time>
      </trkpt>
      <trkpt lat="44.9527080" lon="-93.6091690">
        <ele>286.1300000</ele>
        <time>2009-04-19T16:04:28Z</time>
      </trkpt>
      <trkpt lat="44.9527080" lon="-93.6089710">
        <ele>286.1300000</ele>
        <time>2009-04-19T16:04:29Z</time>
      </trkpt>
      <trkpt lat="44.9527080" lon="-93.6087750">
        <ele>286.1300000</ele>
        <time>2009-04-19T16:04:30Z</time>
      </trkpt>
      <trkpt lat="44.9527030" lon="-93.6086040">
        <ele>286.6100000</ele>
        <time>2009-04-19T16:04:31Z</time>
      </trkpt>
      <trkpt lat="44.9526580" lon="-93.6084250">
        <ele>286.6100000</ele>
        <time>2009-04-19T16:04:32Z</time>
      </trkpt>
      <trkpt lat="44.9526140" lon="-93.6082490">
        <ele>286.6100000</ele>
        <time>2009-04-19T16:04:33Z</time>
      </trkpt>
      <trkpt lat="44.9525710" lon="-93.6080750">
        <ele>286.6100000</ele>
        <time>2009-04-19T16:04:34Z</time>
      </trkpt>
      <trkpt lat="44.9525240" lon="-93.6079100">
        <ele>286.6100000</ele>
        <time>2009-04-19T16:04:35Z</time>
      </trkpt>
      <trkpt lat="44.9521570" lon="-93.6068800">
        <ele>289.0100000</ele>
        <time>2009-04-19T16:04:41Z</time>
      </trkpt>
      <trkpt lat="44.9521330" lon="-93.6066860">
        <ele>289.4900000</ele>
        <time>2009-04-19T16:04:42Z</time>
      </trkpt>
      <trkpt lat="44.9521090" lon="-93.6064940">
        <ele>289.9700000</ele>
        <time>2009-04-19T16:04:43Z</time>
      </trkpt>
      <trkpt lat="44.9521400" lon="-93.6063010">
        <ele>290.4600000</ele>
        <time>2009-04-19T16:04:44Z</time>
      </trkpt>
      <trkpt lat="44.9521760" lon="-93.6061110">
        <ele>290.9400000</ele>
        <time>2009-04-19T16:04:45Z</time>
      </trkpt>
      <trkpt lat="44.9522110" lon="-93.6059210">
        <ele>290.9400000</ele>
        <time>2009-04-19T16:04:46Z</time>
      </trkpt>
      <trkpt lat="44.9522560" lon="-93.6057430">
        <ele>291.4200000</ele>
        <time>2009-04-19T16:04:47Z</time>
      </trkpt>
      <trkpt lat="44.9523260" lon="-93.6055730">
        <ele>291.4200000</ele>
        <time>2009-04-19T16:04:48Z</time>
      </trkpt>
      <trkpt lat="44.9530370" lon="-93.6032050">
        <ele>290.4600000</ele>
        <time>2009-04-19T16:05:00Z</time>
      </trkpt>
      <trkpt lat="44.9535420" lon="-93.6019640">
        <ele>288.5300000</ele>
        <time>2009-04-19T16:05:06Z</time>
      </trkpt>
      <trkpt lat="44.9550570" lon="-93.5995650">
        <ele>288.0500000</ele>
        <time>2009-04-19T16:05:20Z</time>
      </trkpt>
      <trkpt lat="44.9559250" lon="-93.5977550">
        <ele>287.0900000</ele>
        <time>2009-04-19T16:05:29Z</time>
      </trkpt>
      <trkpt lat="44.9561410" lon="-93.5960750">
        <ele>285.6500000</ele>
        <time>2009-04-19T16:05:36Z</time>
      </trkpt>
      <trkpt lat="44.9559490" lon="-93.5942470">
        <ele>285.6500000</ele>
        <time>2009-04-19T16:05:44Z</time>
      </trkpt>
      <trkpt lat="44.9552200" lon="-93.5910430">
        <ele>283.7300000</ele>
        <time>2009-04-19T16:05:58Z</time>
      </trkpt>
      <trkpt lat="44.9544780" lon="-93.5890270">
        <ele>282.7700000</ele>
        <time>2009-04-19T16:06:07Z</time>
      </trkpt>
      <trkpt lat="44.9529790" lon="-93.5851530">
        <ele>293.8200000</ele>
        <time>2009-04-19T16:06:24Z</time>
      </trkpt>
      <trkpt lat="44.9529330" lon="-93.5849040">
        <ele>294.3000000</ele>
        <time>2009-04-19T16:06:25Z</time>
      </trkpt>
      <trkpt lat="44.9529190" lon="-93.5846660">
        <ele>294.7800000</ele>
        <time>2009-04-19T16:06:26Z</time>
      </trkpt>
      <trkpt lat="44.9529140" lon="-93.5844050">
        <ele>294.7800000</ele>
        <time>2009-04-19T16:06:27Z</time>
      </trkpt>
      <trkpt lat="44.9529080" lon="-93.5841400">
        <ele>294.7800000</ele>
        <time>2009-04-19T16:06:28Z</time>
      </trkpt>
      <trkpt lat="44.9529220" lon="-93.5804700">
        <ele>295.2600000</ele>
        <time>2009-04-19T16:06:42Z</time>
      </trkpt>
      <trkpt lat="44.9529220" lon="-93.5775200">
        <ele>295.7400000</ele>
        <time>2009-04-19T16:06:54Z</time>
      </trkpt>
      <trkpt lat="44.9529140" lon="-93.5758000">
        <ele>294.3000000</ele>
        <time>2009-04-19T16:07:03Z</time>
      </trkpt>
      <trkpt lat="44.9528900" lon="-93.5748900">
        <ele>293.3400000</ele>
        <time>2009-04-19T16:07:12Z</time>
      </trkpt>
      <trkpt lat="44.9528890" lon="-93.5748620">
        <ele>293.8200000</ele>
        <time>2009-04-19T16:07:23Z</time>
      </trkpt>
      <trkpt lat="44.9528800" lon="-93.5745440">
        <ele>291.9000000</ele>
        <time>2009-04-19T16:07:33Z</time>
      </trkpt>
      <trkpt lat="44.9528710" lon="-93.5744750">
        <ele>291.4200000</ele>
        <time>2009-04-19T16:07:34Z</time>
      </trkpt>
      <trkpt lat="44.9528540" lon="-93.5744130">
        <ele>291.4200000</ele>
        <time>2009-04-19T16:07:35Z</time>
      </trkpt>
      <trkpt lat="44.9528390" lon="-93.5743560">
        <ele>290.9400000</ele>
        <time>2009-04-19T16:07:36Z</time>
      </trkpt>
      <trkpt lat="44.9528240" lon="-93.5743040">
        <ele>290.4600000</ele>
        <time>2009-04-19T16:07:37Z</time>
      </trkpt>
      <trkpt lat="44.9528110" lon="-93.5742550">
        <ele>290.4600000</ele>
        <time>2009-04-19T16:07:38Z</time>
      </trkpt>
      <trkpt lat="44.9527990" lon="-93.5742120">
        <ele>289.9700000</ele>
        <time>2009-04-19T16:07:39Z</time>
      </trkpt>
      <trkpt lat="44.9527890" lon="-93.5741740">
        <ele>289.9700000</ele>
        <time>2009-04-19T16:07:40Z</time>
      </trkpt>
      <trkpt lat="44.9525990" lon="-93.5741550">
        <ele>289.9700000</ele>
        <time>2009-04-19T16:07:41Z</time>
      </trkpt>
      <trkpt lat="44.9525450" lon="-93.5741990">
        <ele>289.4900000</ele>
        <time>2009-04-19T16:07:42Z</time>
      </trkpt>
      <trkpt lat="44.9524740" lon="-93.5742550">
        <ele>289.0100000</ele>
        <time>2009-04-19T16:07:43Z</time>
      </trkpt>
      <trkpt lat="44.9523830" lon="-93.5743280">
        <ele>288.5300000</ele>
        <time>2009-04-19T16:07:44Z</time>
      </trkpt>
      <trkpt lat="44.9514890" lon="-93.5750440">
        <ele>285.6500000</ele>
        <time>2009-04-19T16:07:51Z</time>
      </trkpt>
      <trkpt lat="44.9498090" lon="-93.5761160">
        <ele>283.7300000</ele>
        <time>2009-04-19T16:08:03Z</time>
      </trkpt>
      <trkpt lat="44.9482690" lon="-93.5761430">
        <ele>285.1700000</ele>
        <time>2009-04-19T16:08:13Z</time>
      </trkpt>
      <trkpt lat="44.9471310" lon="-93.5764980">
        <ele>287.5700000</ele>
        <time>2009-04-19T16:08:21Z</time>
      </trkpt>
      <trkpt lat="44.9470020" lon="-93.5766030">
        <ele>287.0900000</ele>
        <time>2009-04-19T16:08:22Z</time>
      </trkpt>
      <trkpt lat="44.9468750" lon="-93.5767080">
        <ele>286.6100000</ele>
        <time>2009-04-19T16:08:23Z</time>
      </trkpt>
      <trkpt lat="44.9467450" lon="-93.5768400">
        <ele>286.6100000</ele>
        <time>2009-04-19T16:08:24Z</time>
      </trkpt>
      <trkpt lat="44.9466400" lon="-93.5769910">
        <ele>286.6100000</ele>
        <time>2009-04-19T16:08:25Z</time>
      </trkpt>
      <trkpt lat="44.9465330" lon="-93.5771450">
        <ele>286.6100000</ele>
        <time>2009-04-19T16:08:26Z</time>
      </trkpt>
      <trkpt lat="44.9457950" lon="-93.5787160">
        <ele>286.1300000</ele>
        <time>2009-04-19T16:08:35Z</time>
      </trkpt>
      <trkpt lat="44.9456990" lon="-93.5788610">
        <ele>286.1300000</ele>
        <time>2009-04-19T16:08:36Z</time>
      </trkpt>
      <trkpt lat="44.9455990" lon="-93.5789940">
        <ele>286.1300000</ele>
        <time>2009-04-19T16:08:37Z</time>
      </trkpt>
      <trkpt lat="44.9454830" lon="-93.5790990">
        <ele>286.6100000</ele>
        <time>2009-04-19T16:08:38Z</time>
      </trkpt>
      <trkpt lat="44.9453670" lon="-93.5792030">
        <ele>287.0900000</ele>
        <time>2009-04-19T16:08:39Z</time>
      </trkpt>
      <trkpt lat="44.9452520" lon="-93.5793070">
        <ele>287.5700000</ele>
        <time>2009-04-19T16:08:40Z</time>
      </trkpt>
      <trkpt lat="44.9451280" lon="-93.5793820">
        <ele>288.0500000</ele>
        <time>2009-04-19T16:08:41Z</time>
      </trkpt>
      <trkpt lat="44.9449940" lon="-93.5794320">
        <ele>288.5300000</ele>
        <time>2009-04-19T16:08:42Z</time>
      </trkpt>
      <trkpt lat="44.9433140" lon="-93.5802120">
        <ele>287.5700000</ele>
        <time>2009-04-19T16:08:54Z</time>
      </trkpt>
      <trkpt lat="44.9417880" lon="-93.5812350">
        <ele>283.2500000</ele>
        <time>2009-04-19T16:09:05Z</time>
      </trkpt>
      <trkpt lat="44.9415230" lon="-93.5814460">
        <ele>283.2500000</ele>
        <time>2009-04-19T16:09:07Z</time>
      </trkpt>
      <trkpt lat="44.9413850" lon="-93.5814990">
        <ele>282.7700000</ele>
        <time>2009-04-19T16:09:08Z</time>
      </trkpt>
      <trkpt lat="44.9412330" lon="-93.5815500">
        <ele>282.7700000</ele>
        <time>2009-04-19T16:09:09Z</time>
      </trkpt>
      <trkpt lat="44.9410860" lon="-93.5815940">
        <ele>282.2800000</ele>
        <time>2009-04-19T16:09:10Z</time>
      </trkpt>
      <trkpt lat="44.9409360" lon="-93.5816240">
        <ele>282.2800000</ele>
        <time>2009-04-19T16:09:11Z</time>
      </trkpt>
      <trkpt lat="44.9395040" lon="-93.5821820">
        <ele>279.8800000</ele>
        <time>2009-04-19T16:09:21Z</time>
      </trkpt>
      <trkpt lat="44.9393640" lon="-93.5822910">
        <ele>279.8800000</ele>
        <time>2009-04-19T16:09:22Z</time>
      </trkpt>
      <trkpt lat="44.9392230" lon="-93.5824460">
        <ele>279.4000000</ele>
        <time>2009-04-19T16:09:23Z</time>
      </trkpt>
      <trkpt lat="44.9391190" lon="-93.5826200">
        <ele>279.4000000</ele>
        <time>2009-04-19T16:09:24Z</time>
      </trkpt>
      <trkpt lat="44.9390170" lon="-93.5827910">
        <ele>278.9200000</ele>
        <time>2009-04-19T16:09:25Z</time>
      </trkpt>
      <trkpt lat="44.9389160" lon="-93.5829590">
        <ele>279.4000000</ele>
        <time>2009-04-19T16:09:26Z</time>
      </trkpt>
      <trkpt lat="44.9386300" lon="-93.5836970">
        <ele>283.7300000</ele>
        <time>2009-04-19T16:09:30Z</time>
      </trkpt>
      <trkpt lat="44.9386000" lon="-93.5838980">
        <ele>284.6900000</ele>
        <time>2009-04-19T16:09:31Z</time>
      </trkpt>
      <trkpt lat="44.9385680" lon="-93.5841010">
        <ele>285.1700000</ele>
        <time>2009-04-19T16:09:32Z</time>
      </trkpt>
      <trkpt lat="44.9385520" lon="-93.5842990">
        <ele>285.1700000</ele>
        <time>2009-04-19T16:09:33Z</time>
      </trkpt>
      <trkpt lat="44.9385790" lon="-93.5845100">
        <ele>285.6500000</ele>
        <time>2009-04-19T16:09:34Z</time>
      </trkpt>
      <trkpt lat="44.9386080" lon="-93.5847240">
        <ele>285.6500000</ele>
        <time>2009-04-19T16:09:35Z</time>
      </trkpt>
      <trkpt lat="44.9386430" lon="-93.5849320">
        <ele>286.6100000</ele>
        <time>2009-04-19T16:09:36Z</time>
      </trkpt>
      <trkpt lat="44.9387010" lon="-93.5851340">
        <ele>287.0900000</ele>
        <time>2009-04-19T16:09:37Z</time>
      </trkpt>
      <trkpt lat="44.9393540" lon="-93.5878950">
        <ele>291.4200000</ele>
        <time>2009-04-19T16:09:51Z</time>
      </trkpt>
      <trkpt lat="44.9396640" lon="-93.5909330">
        <ele>293.3400000</ele>
        <time>2009-04-19T16:10:05Z</time>
      </trkpt>
      <trkpt lat="44.9396470" lon="-93.5929730">
        <ele>294.7800000</ele>
        <time>2009-04-19T16:10:14Z</time>
      </trkpt>
      <trkpt lat="44.9392990" lon="-93.5951080">
        <ele>294.7800000</ele>
        <time>2009-04-19T16:10:24Z</time>
      </trkpt>
      <trkpt lat="44.9389990" lon="-93.5967940">
        <ele>294.3000000</ele>
        <time>2009-04-19T16:10:32Z</time>
      </trkpt>
      <trkpt lat="44.9387810" lon="-93.5986780">
        <ele>293.8200000</ele>
        <time>2009-04-19T16:10:41Z</time>
      </trkpt>
      <trkpt lat="44.9384270" lon="-93.6002930">
        <ele>293.3400000</ele>
        <time>2009-04-19T16:10:49Z</time>
      </trkpt>
      <trkpt lat="44.9380300" lon="-93.6011860">
        <ele>293.3400000</ele>
        <time>2009-04-19T16:10:54Z</time>
      </trkpt>
      <trkpt lat="44.9379160" lon="-93.6013380">
        <ele>293.3400000</ele>
        <time>2009-04-19T16:10:55Z</time>
      </trkpt>
      <trkpt lat="44.9377950" lon="-93.6014750">
        <ele>293.8200000</ele>
        <time>2009-04-19T16:10:56Z</time>
      </trkpt>
      <trkpt lat="44.9376620" lon="-93.6016030">
        <ele>293.8200000</ele>
        <time>2009-04-19T16:10:57Z</time>
      </trkpt>
      <trkpt lat="44.9375280" lon="-93.6017310">
        <ele>293.8200000</ele>
        <time>2009-04-19T16:10:58Z</time>
      </trkpt>
      <trkpt lat="44.9361390" lon="-93.6033960">
        <ele>291.9000000</ele>
        <time>2009-04-19T16:11:09Z</time>
      </trkpt>
      <trkpt lat="44.9352470" lon="-93.6054680">
        <ele>294.3000000</ele>
        <time>2009-04-19T16:11:20Z</time>
      </trkpt>
      <trkpt lat="44.9348050" lon="-93.6067410">
        <ele>297.6700000</ele>
        <time>2009-04-19T16:11:29Z</time>
      </trkpt>
      <trkpt lat="44.9347260" lon="-93.6072680">
        <ele>301.5100000</ele>
        <time>2009-04-19T16:11:37Z</time>
      </trkpt>
      <trkpt lat="44.9346400" lon="-93.6085950">
        <ele>303.4300000</ele>
        <time>2009-04-19T16:11:46Z</time>
      </trkpt>
      <trkpt lat="44.9346400" lon="-93.6098590">
        <ele>303.4300000</ele>
        <time>2009-04-19T16:11:55Z</time>
      </trkpt>
      <trkpt lat="44.9346400" lon="-93.6112810">
        <ele>301.9900000</ele>
        <time>2009-04-19T16:12:04Z</time>
      </trkpt>
      <trkpt lat="44.9345950" lon="-93.6150510">
        <ele>302.4700000</ele>
        <time>2009-04-19T16:12:24Z</time>
      </trkpt>
      <trkpt lat="44.9345760" lon="-93.6178330">
        <ele>295.2600000</ele>
        <time>2009-04-19T16:12:38Z</time>
      </trkpt>
      <trkpt lat="44.9345660" lon="-93.6212930">
        <ele>296.2200000</ele>
        <time>2009-04-19T16:12:55Z</time>
      </trkpt>
      <trkpt lat="44.9347900" lon="-93.6241500">
        <ele>293.8200000</ele>
        <time>2009-04-19T16:13:09Z</time>
      </trkpt>
      <trkpt lat="44.9351520" lon="-93.6265800">
        <ele>296.7000000</ele>
        <time>2009-04-19T16:13:23Z</time>
      </trkpt>
      <trkpt lat="44.9353660" lon="-93.6293470">
        <ele>299.1100000</ele>
        <time>2009-04-19T16:13:40Z</time>
      </trkpt>
      <trkpt lat="44.9352590" lon="-93.6318940">
        <ele>298.6300000</ele>
        <time>2009-04-19T16:13:54Z</time>
      </trkpt>
      <trkpt lat="44.9352070" lon="-93.6347000">
        <ele>300.5500000</ele>
        <time>2009-04-19T16:14:09Z</time>
      </trkpt>
      <trkpt lat="44.9357070" lon="-93.6363010">
        <ele>300.0700000</ele>
        <time>2009-04-19T16:14:18Z</time>
      </trkpt>
      <trkpt lat="44.9361050" lon="-93.6382810">
        <ele>303.4300000</ele>
        <time>2009-04-19T16:14:29Z</time>
      </trkpt>
      <trkpt lat="44.9362640" lon="-93.6404780">
        <ele>299.5900000</ele>
        <time>2009-04-19T16:14:41Z</time>
      </trkpt>
      <trkpt lat="44.9363230" lon="-93.6414620">
        <ele>296.7000000</ele>
        <time>2009-04-19T16:14:49Z</time>
      </trkpt>
      <trkpt lat="44.9363790" lon="-93.6418080">
        <ele>293.8200000</ele>
        <time>2009-04-19T16:14:59Z</time>
      </trkpt>
      <trkpt lat="44.9363810" lon="-93.6418220">
        <ele>293.8200000</ele>
        <time>2009-04-19T16:15:00Z</time>
      </trkpt>
      <trkpt lat="44.9363140" lon="-93.6414110">
        <ele>293.8200000</ele>
        <time>2009-04-19T16:15:01Z</time>
      </trkpt>
      <trkpt lat="44.9364030" lon="-93.6419550">
        <ele>293.8200000</ele>
        <time>2009-04-19T16:15:06Z</time>
      </trkpt>
      <trkpt lat="44.9364120" lon="-93.6420110">
        <ele>293.8200000</ele>
        <time>2009-04-19T16:15:07Z</time>
      </trkpt>
      <trkpt lat="44.9364190" lon="-93.6420510">
        <ele>294.3000000</ele>
        <time>2009-04-19T16:15:08Z</time>
      </trkpt>
      <trkpt lat="44.9363140" lon="-93.6414110">
        <ele>294.3000000</ele>
        <time>2009-04-19T16:15:09Z</time>
      </trkpt>
      <trkpt lat="44.9363140" lon="-93.6414110">
        <ele>294.3000000</ele>
        <time>2009-04-19T16:15:10Z</time>
      </trkpt>
      <trkpt lat="44.9363140" lon="-93.6414110">
        <ele>293.8200000</ele>
        <time>2009-04-19T16:15:21Z</time>
      </trkpt>
      <trkpt lat="44.9363140" lon="-93.6414110">
        <ele>294.7800000</ele>
        <time>2009-04-19T16:15:28Z</time>
      </trkpt>
    </trkseg>
  </trk>

</gpx>
